<?xml version="1.0" encoding="UTF-8" standalone="no" ?>
<gpx xmlns="http://www.topografix.com/GPX/1/1" xmlns:xsi="http://www.w3.org/2001/XMLSchema-instance" xsi:schemaLocation="http://www.topografix.com/GPX/1/1 http://www.topografix.com/GPX/1/1/gpx.xsd" version="1.1" creator="VisuGPX - https://www.visugpx.com">
  <metadata>
    <name>ASLPM Andorre 2015 marche Encamp le 21 Mars</name>
    <desc><![CDATA[Fini le stage raquettes Andorre 2015.
Petite marche de relaxation avant CALDEA....]]></desc>
  </metadata>
  <trk>
    <name><![CDATA[Andorre Encamp]]></name>
    <trkseg>
      <trkpt lat="42.53502" lon="1.58034">
        <ele>1259</ele>
        <time>2015-03-21T08:29:53.000Z</time>
      </trkpt>
      <trkpt lat="42.53499" lon="1.58039">
        <ele>1256</ele>
        <time>2015-03-21T08:29:57.000Z</time>
      </trkpt>
      <trkpt lat="42.53499" lon="1.58039">
        <ele>1256</ele>
        <time>2015-03-21T08:29:58.000Z</time>
      </trkpt>
      <trkpt lat="42.53499" lon="1.58039">
        <ele>1256</ele>
        <time>2015-03-21T08:29:59.000Z</time>
      </trkpt>
      <trkpt lat="42.53499" lon="1.5804">
        <ele>1256</ele>
        <time>2015-03-21T08:30:00.000Z</time>
      </trkpt>
      <trkpt lat="42.53499" lon="1.5804">
        <ele>1256</ele>
        <time>2015-03-21T08:30:01.000Z</time>
      </trkpt>
      <trkpt lat="42.53499" lon="1.58041">
        <ele>1256</ele>
        <time>2015-03-21T08:30:02.000Z</time>
      </trkpt>
      <trkpt lat="42.53498" lon="1.58041">
        <ele>1256</ele>
        <time>2015-03-21T08:30:03.000Z</time>
      </trkpt>
      <trkpt lat="42.53498" lon="1.58041">
        <ele>1256</ele>
        <time>2015-03-21T08:30:04.000Z</time>
      </trkpt>
      <trkpt lat="42.53498" lon="1.58041">
        <ele>1256</ele>
        <time>2015-03-21T08:30:05.000Z</time>
      </trkpt>
      <trkpt lat="42.53498" lon="1.58042">
        <ele>1256</ele>
        <time>2015-03-21T08:30:07.000Z</time>
      </trkpt>
      <trkpt lat="42.53497" lon="1.58042">
        <ele>1256</ele>
        <time>2015-03-21T08:30:08.000Z</time>
      </trkpt>
      <trkpt lat="42.53497" lon="1.58042">
        <ele>1256</ele>
        <time>2015-03-21T08:30:09.000Z</time>
      </trkpt>
      <trkpt lat="42.53497" lon="1.58042">
        <ele>1256</ele>
        <time>2015-03-21T08:30:10.000Z</time>
      </trkpt>
      <trkpt lat="42.53497" lon="1.58043">
        <ele>1256</ele>
        <time>2015-03-21T08:30:11.000Z</time>
      </trkpt>
      <trkpt lat="42.53497" lon="1.58044">
        <ele>1256</ele>
        <time>2015-03-21T08:30:12.000Z</time>
      </trkpt>
      <trkpt lat="42.53495" lon="1.5805">
        <ele>1256</ele>
        <time>2015-03-21T08:30:18.000Z</time>
      </trkpt>
      <trkpt lat="42.53495" lon="1.5805">
        <ele>1256</ele>
        <time>2015-03-21T08:30:19.000Z</time>
      </trkpt>
      <trkpt lat="42.53495" lon="1.58051">
        <ele>1256</ele>
        <time>2015-03-21T08:30:20.000Z</time>
      </trkpt>
      <trkpt lat="42.53495" lon="1.58051">
        <ele>1256</ele>
        <time>2015-03-21T08:30:21.000Z</time>
      </trkpt>
      <trkpt lat="42.53495" lon="1.58051">
        <ele>1256</ele>
        <time>2015-03-21T08:30:22.000Z</time>
      </trkpt>
      <trkpt lat="42.53502" lon="1.58052">
        <ele>1259</ele>
        <time>2015-03-21T08:30:27.000Z</time>
      </trkpt>
      <trkpt lat="42.5351" lon="1.58055">
        <ele>1259</ele>
        <time>2015-03-21T08:30:36.000Z</time>
      </trkpt>
      <trkpt lat="42.53515" lon="1.58058">
        <ele>1259</ele>
        <time>2015-03-21T08:30:44.000Z</time>
      </trkpt>
      <trkpt lat="42.53522" lon="1.58064">
        <ele>1259</ele>
        <time>2015-03-21T08:30:53.000Z</time>
      </trkpt>
      <trkpt lat="42.53529" lon="1.5807">
        <ele>1260</ele>
        <time>2015-03-21T08:31:03.000Z</time>
      </trkpt>
      <trkpt lat="42.53535" lon="1.58075">
        <ele>1260</ele>
        <time>2015-03-21T08:31:10.000Z</time>
      </trkpt>
      <trkpt lat="42.53536" lon="1.58075">
        <ele>1260</ele>
        <time>2015-03-21T08:31:11.000Z</time>
      </trkpt>
      <trkpt lat="42.53536" lon="1.58076">
        <ele>1260</ele>
        <time>2015-03-21T08:31:12.000Z</time>
      </trkpt>
      <trkpt lat="42.53537" lon="1.58077">
        <ele>1260</ele>
        <time>2015-03-21T08:31:13.000Z</time>
      </trkpt>
      <trkpt lat="42.53538" lon="1.58077">
        <ele>1260</ele>
        <time>2015-03-21T08:31:14.000Z</time>
      </trkpt>
      <trkpt lat="42.5354" lon="1.58079">
        <ele>1260</ele>
        <time>2015-03-21T08:31:16.000Z</time>
      </trkpt>
      <trkpt lat="42.53544" lon="1.58082">
        <ele>1260</ele>
        <time>2015-03-21T08:31:20.000Z</time>
      </trkpt>
      <trkpt lat="42.53546" lon="1.58084">
        <ele>1261</ele>
        <time>2015-03-21T08:31:22.000Z</time>
      </trkpt>
      <trkpt lat="42.53553" lon="1.58089">
        <ele>1262</ele>
        <time>2015-03-21T08:31:28.000Z</time>
      </trkpt>
      <trkpt lat="42.53556" lon="1.58093">
        <ele>1262</ele>
        <time>2015-03-21T08:31:39.000Z</time>
      </trkpt>
      <trkpt lat="42.5355" lon="1.58101">
        <ele>1262</ele>
        <time>2015-03-21T08:31:46.000Z</time>
      </trkpt>
      <trkpt lat="42.53544" lon="1.58113">
        <ele>1262</ele>
        <time>2015-03-21T08:31:55.000Z</time>
      </trkpt>
      <trkpt lat="42.53536" lon="1.5812">
        <ele>1262</ele>
        <time>2015-03-21T08:32:03.000Z</time>
      </trkpt>
      <trkpt lat="42.53534" lon="1.58125">
        <ele>1262</ele>
        <time>2015-03-21T08:32:09.000Z</time>
      </trkpt>
      <trkpt lat="42.53533" lon="1.58127">
        <ele>1262</ele>
        <time>2015-03-21T08:32:10.000Z</time>
      </trkpt>
      <trkpt lat="42.5353" lon="1.58135">
        <ele>1262</ele>
        <time>2015-03-21T08:32:16.000Z</time>
      </trkpt>
      <trkpt lat="42.53527" lon="1.58144">
        <ele>1262</ele>
        <time>2015-03-21T08:32:23.000Z</time>
      </trkpt>
      <trkpt lat="42.53527" lon="1.58149">
        <ele>1263</ele>
        <time>2015-03-21T08:32:27.000Z</time>
      </trkpt>
      <trkpt lat="42.53528" lon="1.58152">
        <ele>1263</ele>
        <time>2015-03-21T08:32:29.000Z</time>
      </trkpt>
      <trkpt lat="42.53527" lon="1.58156">
        <ele>1263</ele>
        <time>2015-03-21T08:32:32.000Z</time>
      </trkpt>
      <trkpt lat="42.53525" lon="1.58159">
        <ele>1263</ele>
        <time>2015-03-21T08:32:37.000Z</time>
      </trkpt>
      <trkpt lat="42.53524" lon="1.58163">
        <ele>1263</ele>
        <time>2015-03-21T08:32:40.000Z</time>
      </trkpt>
      <trkpt lat="42.53523" lon="1.58167">
        <ele>1266</ele>
        <time>2015-03-21T08:32:44.000Z</time>
      </trkpt>
      <trkpt lat="42.53522" lon="1.58168">
        <ele>1266</ele>
        <time>2015-03-21T08:32:45.000Z</time>
      </trkpt>
      <trkpt lat="42.53522" lon="1.58171">
        <ele>1266</ele>
        <time>2015-03-21T08:32:47.000Z</time>
      </trkpt>
      <trkpt lat="42.53523" lon="1.58173">
        <ele>1266</ele>
        <time>2015-03-21T08:32:49.000Z</time>
      </trkpt>
      <trkpt lat="42.53528" lon="1.58181">
        <ele>1267</ele>
        <time>2015-03-21T08:32:58.000Z</time>
      </trkpt>
      <trkpt lat="42.53533" lon="1.58189">
        <ele>1267</ele>
        <time>2015-03-21T08:33:07.000Z</time>
      </trkpt>
      <trkpt lat="42.53534" lon="1.58189">
        <ele>1267</ele>
        <time>2015-03-21T08:33:08.000Z</time>
      </trkpt>
      <trkpt lat="42.53534" lon="1.5819">
        <ele>1267</ele>
        <time>2015-03-21T08:33:09.000Z</time>
      </trkpt>
      <trkpt lat="42.53534" lon="1.5819">
        <ele>1267</ele>
        <time>2015-03-21T08:33:10.000Z</time>
      </trkpt>
      <trkpt lat="42.53534" lon="1.5819">
        <ele>1267</ele>
        <time>2015-03-21T08:33:11.000Z</time>
      </trkpt>
      <trkpt lat="42.53534" lon="1.5819">
        <ele>1267</ele>
        <time>2015-03-21T08:33:12.000Z</time>
      </trkpt>
      <trkpt lat="42.53534" lon="1.5819">
        <ele>1267</ele>
        <time>2015-03-21T08:33:14.000Z</time>
      </trkpt>
      <trkpt lat="42.53541" lon="1.58196">
        <ele>1267</ele>
        <time>2015-03-21T08:33:21.000Z</time>
      </trkpt>
      <trkpt lat="42.53548" lon="1.58197">
        <ele>1267</ele>
        <time>2015-03-21T08:33:29.000Z</time>
      </trkpt>
      <trkpt lat="42.53553" lon="1.58199">
        <ele>1267</ele>
        <time>2015-03-21T08:33:36.000Z</time>
      </trkpt>
      <trkpt lat="42.53559" lon="1.58201">
        <ele>1268</ele>
        <time>2015-03-21T08:33:43.000Z</time>
      </trkpt>
      <trkpt lat="42.53572" lon="1.58203">
        <ele>1268</ele>
        <time>2015-03-21T08:33:51.000Z</time>
      </trkpt>
      <trkpt lat="42.53576" lon="1.58208">
        <ele>1268</ele>
        <time>2015-03-21T08:33:57.000Z</time>
      </trkpt>
      <trkpt lat="42.53577" lon="1.58209">
        <ele>1268</ele>
        <time>2015-03-21T08:34:03.000Z</time>
      </trkpt>
      <trkpt lat="42.53577" lon="1.58209">
        <ele>1268</ele>
        <time>2015-03-21T08:34:04.000Z</time>
      </trkpt>
      <trkpt lat="42.53578" lon="1.58209">
        <ele>1268</ele>
        <time>2015-03-21T08:34:05.000Z</time>
      </trkpt>
      <trkpt lat="42.53579" lon="1.5821">
        <ele>1268</ele>
        <time>2015-03-21T08:34:06.000Z</time>
      </trkpt>
      <trkpt lat="42.5358" lon="1.58211">
        <ele>1268</ele>
        <time>2015-03-21T08:34:07.000Z</time>
      </trkpt>
      <trkpt lat="42.53583" lon="1.58213">
        <ele>1268</ele>
        <time>2015-03-21T08:34:10.000Z</time>
      </trkpt>
      <trkpt lat="42.53588" lon="1.58217">
        <ele>1270</ele>
        <time>2015-03-21T08:34:16.000Z</time>
      </trkpt>
      <trkpt lat="42.53591" lon="1.58222">
        <ele>1270</ele>
        <time>2015-03-21T08:34:23.000Z</time>
      </trkpt>
      <trkpt lat="42.53591" lon="1.58226">
        <ele>1270</ele>
        <time>2015-03-21T08:34:26.000Z</time>
      </trkpt>
      <trkpt lat="42.53592" lon="1.58229">
        <ele>1271</ele>
        <time>2015-03-21T08:34:29.000Z</time>
      </trkpt>
      <trkpt lat="42.53594" lon="1.58234">
        <ele>1271</ele>
        <time>2015-03-21T08:34:34.000Z</time>
      </trkpt>
      <trkpt lat="42.53595" lon="1.58235">
        <ele>1271</ele>
        <time>2015-03-21T08:34:35.000Z</time>
      </trkpt>
      <trkpt lat="42.53597" lon="1.58241">
        <ele>1271</ele>
        <time>2015-03-21T08:34:39.000Z</time>
      </trkpt>
      <trkpt lat="42.53597" lon="1.58242">
        <ele>1271</ele>
        <time>2015-03-21T08:34:40.000Z</time>
      </trkpt>
      <trkpt lat="42.53597" lon="1.58243">
        <ele>1271</ele>
        <time>2015-03-21T08:34:41.000Z</time>
      </trkpt>
      <trkpt lat="42.53598" lon="1.58244">
        <ele>1271</ele>
        <time>2015-03-21T08:34:42.000Z</time>
      </trkpt>
      <trkpt lat="42.53598" lon="1.58245">
        <ele>1271</ele>
        <time>2015-03-21T08:34:43.000Z</time>
      </trkpt>
      <trkpt lat="42.53598" lon="1.58248">
        <ele>1271</ele>
        <time>2015-03-21T08:34:47.000Z</time>
      </trkpt>
      <trkpt lat="42.53598" lon="1.58254">
        <ele>1273</ele>
        <time>2015-03-21T08:34:53.000Z</time>
      </trkpt>
      <trkpt lat="42.53601" lon="1.58266">
        <ele>1273</ele>
        <time>2015-03-21T08:35:03.000Z</time>
      </trkpt>
      <trkpt lat="42.53601" lon="1.58267">
        <ele>1273</ele>
        <time>2015-03-21T08:35:04.000Z</time>
      </trkpt>
      <trkpt lat="42.53602" lon="1.58268">
        <ele>1273</ele>
        <time>2015-03-21T08:35:05.000Z</time>
      </trkpt>
      <trkpt lat="42.53602" lon="1.58269">
        <ele>1273</ele>
        <time>2015-03-21T08:35:06.000Z</time>
      </trkpt>
      <trkpt lat="42.53602" lon="1.5827">
        <ele>1273</ele>
        <time>2015-03-21T08:35:07.000Z</time>
      </trkpt>
      <trkpt lat="42.53605" lon="1.58277">
        <ele>1273</ele>
        <time>2015-03-21T08:35:13.000Z</time>
      </trkpt>
      <trkpt lat="42.53611" lon="1.58282">
        <ele>1273</ele>
        <time>2015-03-21T08:35:21.000Z</time>
      </trkpt>
      <trkpt lat="42.53618" lon="1.58289">
        <ele>1274</ele>
        <time>2015-03-21T08:35:27.000Z</time>
      </trkpt>
      <trkpt lat="42.5362" lon="1.58291">
        <ele>1274</ele>
        <time>2015-03-21T08:35:28.000Z</time>
      </trkpt>
      <trkpt lat="42.53621" lon="1.58291">
        <ele>1274</ele>
        <time>2015-03-21T08:35:29.000Z</time>
      </trkpt>
      <trkpt lat="42.53622" lon="1.58292">
        <ele>1274</ele>
        <time>2015-03-21T08:35:30.000Z</time>
      </trkpt>
      <trkpt lat="42.53623" lon="1.58293">
        <ele>1274</ele>
        <time>2015-03-21T08:35:31.000Z</time>
      </trkpt>
      <trkpt lat="42.53625" lon="1.58295">
        <ele>1274</ele>
        <time>2015-03-21T08:35:33.000Z</time>
      </trkpt>
      <trkpt lat="42.53626" lon="1.58298">
        <ele>1274</ele>
        <time>2015-03-21T08:35:35.000Z</time>
      </trkpt>
      <trkpt lat="42.53626" lon="1.583">
        <ele>1274</ele>
        <time>2015-03-21T08:35:38.000Z</time>
      </trkpt>
      <trkpt lat="42.5363" lon="1.58311">
        <ele>1274</ele>
        <time>2015-03-21T08:35:47.000Z</time>
      </trkpt>
      <trkpt lat="42.53633" lon="1.58326">
        <ele>1274</ele>
        <time>2015-03-21T08:35:58.000Z</time>
      </trkpt>
      <trkpt lat="42.53636" lon="1.58339">
        <ele>1276</ele>
        <time>2015-03-21T08:36:07.000Z</time>
      </trkpt>
      <trkpt lat="42.53639" lon="1.58352">
        <ele>1276</ele>
        <time>2015-03-21T08:36:16.000Z</time>
      </trkpt>
      <trkpt lat="42.53639" lon="1.58356">
        <ele>1276</ele>
        <time>2015-03-21T08:36:19.000Z</time>
      </trkpt>
      <trkpt lat="42.5364" lon="1.58359">
        <ele>1276</ele>
        <time>2015-03-21T08:36:23.000Z</time>
      </trkpt>
      <trkpt lat="42.53641" lon="1.58367">
        <ele>1277</ele>
        <time>2015-03-21T08:36:32.000Z</time>
      </trkpt>
      <trkpt lat="42.53643" lon="1.58374">
        <ele>1277</ele>
        <time>2015-03-21T08:36:40.000Z</time>
      </trkpt>
      <trkpt lat="42.53644" lon="1.58376">
        <ele>1277</ele>
        <time>2015-03-21T08:36:44.000Z</time>
      </trkpt>
      <trkpt lat="42.53644" lon="1.58377">
        <ele>1277</ele>
        <time>2015-03-21T08:36:45.000Z</time>
      </trkpt>
      <trkpt lat="42.53645" lon="1.58379">
        <ele>1277</ele>
        <time>2015-03-21T08:36:46.000Z</time>
      </trkpt>
      <trkpt lat="42.53645" lon="1.58379">
        <ele>1277</ele>
        <time>2015-03-21T08:36:47.000Z</time>
      </trkpt>
      <trkpt lat="42.53646" lon="1.58381">
        <ele>1277</ele>
        <time>2015-03-21T08:36:48.000Z</time>
      </trkpt>
      <trkpt lat="42.53649" lon="1.58389">
        <ele>1277</ele>
        <time>2015-03-21T08:36:55.000Z</time>
      </trkpt>
      <trkpt lat="42.5365" lon="1.58396">
        <ele>1278</ele>
        <time>2015-03-21T08:37:01.000Z</time>
      </trkpt>
      <trkpt lat="42.5365" lon="1.58397">
        <ele>1278</ele>
        <time>2015-03-21T08:37:02.000Z</time>
      </trkpt>
      <trkpt lat="42.5365" lon="1.58399">
        <ele>1278</ele>
        <time>2015-03-21T08:37:03.000Z</time>
      </trkpt>
      <trkpt lat="42.5365" lon="1.584">
        <ele>1278</ele>
        <time>2015-03-21T08:37:04.000Z</time>
      </trkpt>
      <trkpt lat="42.5365" lon="1.58401">
        <ele>1278</ele>
        <time>2015-03-21T08:37:05.000Z</time>
      </trkpt>
      <trkpt lat="42.53653" lon="1.58408">
        <ele>1278</ele>
        <time>2015-03-21T08:37:12.000Z</time>
      </trkpt>
      <trkpt lat="42.53654" lon="1.58415">
        <ele>1278</ele>
        <time>2015-03-21T08:37:18.000Z</time>
      </trkpt>
      <trkpt lat="42.53654" lon="1.58416">
        <ele>1278</ele>
        <time>2015-03-21T08:37:20.000Z</time>
      </trkpt>
      <trkpt lat="42.53654" lon="1.58417">
        <ele>1281</ele>
        <time>2015-03-21T08:37:21.000Z</time>
      </trkpt>
      <trkpt lat="42.53654" lon="1.58419">
        <ele>1281</ele>
        <time>2015-03-21T08:37:22.000Z</time>
      </trkpt>
      <trkpt lat="42.53653" lon="1.58421">
        <ele>1281</ele>
        <time>2015-03-21T08:37:23.000Z</time>
      </trkpt>
      <trkpt lat="42.53653" lon="1.58422">
        <ele>1281</ele>
        <time>2015-03-21T08:37:24.000Z</time>
      </trkpt>
      <trkpt lat="42.53653" lon="1.58424">
        <ele>1281</ele>
        <time>2015-03-21T08:37:26.000Z</time>
      </trkpt>
      <trkpt lat="42.53654" lon="1.58436">
        <ele>1282</ele>
        <time>2015-03-21T08:37:36.000Z</time>
      </trkpt>
      <trkpt lat="42.53654" lon="1.58438">
        <ele>1283</ele>
        <time>2015-03-21T08:37:37.000Z</time>
      </trkpt>
      <trkpt lat="42.53654" lon="1.58439">
        <ele>1283</ele>
        <time>2015-03-21T08:37:38.000Z</time>
      </trkpt>
      <trkpt lat="42.53654" lon="1.5844">
        <ele>1283</ele>
        <time>2015-03-21T08:37:39.000Z</time>
      </trkpt>
      <trkpt lat="42.53654" lon="1.58441">
        <ele>1283</ele>
        <time>2015-03-21T08:37:40.000Z</time>
      </trkpt>
      <trkpt lat="42.53654" lon="1.58442">
        <ele>1283</ele>
        <time>2015-03-21T08:37:41.000Z</time>
      </trkpt>
      <trkpt lat="42.53654" lon="1.58443">
        <ele>1283</ele>
        <time>2015-03-21T08:37:43.000Z</time>
      </trkpt>
      <trkpt lat="42.53656" lon="1.58451">
        <ele>1284</ele>
        <time>2015-03-21T08:37:51.000Z</time>
      </trkpt>
      <trkpt lat="42.53657" lon="1.58453">
        <ele>1284</ele>
        <time>2015-03-21T08:37:52.000Z</time>
      </trkpt>
      <trkpt lat="42.53658" lon="1.58453">
        <ele>1284</ele>
        <time>2015-03-21T08:37:53.000Z</time>
      </trkpt>
      <trkpt lat="42.5366" lon="1.58454">
        <ele>1284</ele>
        <time>2015-03-21T08:37:54.000Z</time>
      </trkpt>
      <trkpt lat="42.5366" lon="1.58454">
        <ele>1284</ele>
        <time>2015-03-21T08:37:55.000Z</time>
      </trkpt>
      <trkpt lat="42.53665" lon="1.58459">
        <ele>1284</ele>
        <time>2015-03-21T08:37:59.000Z</time>
      </trkpt>
      <trkpt lat="42.5367" lon="1.58465">
        <ele>1284</ele>
        <time>2015-03-21T08:38:05.000Z</time>
      </trkpt>
      <trkpt lat="42.53671" lon="1.58466">
        <ele>1284</ele>
        <time>2015-03-21T08:38:06.000Z</time>
      </trkpt>
      <trkpt lat="42.53671" lon="1.58467">
        <ele>1284</ele>
        <time>2015-03-21T08:38:07.000Z</time>
      </trkpt>
      <trkpt lat="42.53671" lon="1.58467">
        <ele>1284</ele>
        <time>2015-03-21T08:38:08.000Z</time>
      </trkpt>
      <trkpt lat="42.53671" lon="1.58467">
        <ele>1284</ele>
        <time>2015-03-21T08:38:09.000Z</time>
      </trkpt>
      <trkpt lat="42.53672" lon="1.5847">
        <ele>1284</ele>
        <time>2015-03-21T08:38:16.000Z</time>
      </trkpt>
      <trkpt lat="42.53672" lon="1.58477">
        <ele>1285</ele>
        <time>2015-03-21T08:38:24.000Z</time>
      </trkpt>
      <trkpt lat="42.53674" lon="1.58486">
        <ele>1286</ele>
        <time>2015-03-21T08:38:32.000Z</time>
      </trkpt>
      <trkpt lat="42.53674" lon="1.58493">
        <ele>1287</ele>
        <time>2015-03-21T08:38:39.000Z</time>
      </trkpt>
      <trkpt lat="42.53675" lon="1.58496">
        <ele>1287</ele>
        <time>2015-03-21T08:38:41.000Z</time>
      </trkpt>
      <trkpt lat="42.53675" lon="1.58497">
        <ele>1287</ele>
        <time>2015-03-21T08:38:42.000Z</time>
      </trkpt>
      <trkpt lat="42.53676" lon="1.58499">
        <ele>1287</ele>
        <time>2015-03-21T08:38:43.000Z</time>
      </trkpt>
      <trkpt lat="42.53676" lon="1.585">
        <ele>1289</ele>
        <time>2015-03-21T08:38:44.000Z</time>
      </trkpt>
      <trkpt lat="42.53677" lon="1.58501">
        <ele>1289</ele>
        <time>2015-03-21T08:38:45.000Z</time>
      </trkpt>
      <trkpt lat="42.53679" lon="1.58504">
        <ele>1289</ele>
        <time>2015-03-21T08:38:48.000Z</time>
      </trkpt>
      <trkpt lat="42.53683" lon="1.58517">
        <ele>1290</ele>
        <time>2015-03-21T08:38:56.000Z</time>
      </trkpt>
      <trkpt lat="42.53685" lon="1.58519">
        <ele>1290</ele>
        <time>2015-03-21T08:39:02.000Z</time>
      </trkpt>
      <trkpt lat="42.53685" lon="1.58519">
        <ele>1290</ele>
        <time>2015-03-21T08:39:03.000Z</time>
      </trkpt>
      <trkpt lat="42.53685" lon="1.5852">
        <ele>1290</ele>
        <time>2015-03-21T08:39:04.000Z</time>
      </trkpt>
      <trkpt lat="42.53686" lon="1.58521">
        <ele>1290</ele>
        <time>2015-03-21T08:39:05.000Z</time>
      </trkpt>
      <trkpt lat="42.53686" lon="1.58522">
        <ele>1290</ele>
        <time>2015-03-21T08:39:06.000Z</time>
      </trkpt>
      <trkpt lat="42.53686" lon="1.58523">
        <ele>1290</ele>
        <time>2015-03-21T08:39:07.000Z</time>
      </trkpt>
      <trkpt lat="42.53685" lon="1.58525">
        <ele>1290</ele>
        <time>2015-03-21T08:39:10.000Z</time>
      </trkpt>
      <trkpt lat="42.53688" lon="1.58537">
        <ele>1290</ele>
        <time>2015-03-21T08:39:18.000Z</time>
      </trkpt>
      <trkpt lat="42.53689" lon="1.58537">
        <ele>1290</ele>
        <time>2015-03-21T08:39:19.000Z</time>
      </trkpt>
      <trkpt lat="42.53689" lon="1.58538">
        <ele>1290</ele>
        <time>2015-03-21T08:39:20.000Z</time>
      </trkpt>
      <trkpt lat="42.53689" lon="1.5854">
        <ele>1290</ele>
        <time>2015-03-21T08:39:21.000Z</time>
      </trkpt>
      <trkpt lat="42.5369" lon="1.58541">
        <ele>1290</ele>
        <time>2015-03-21T08:39:22.000Z</time>
      </trkpt>
      <trkpt lat="42.5369" lon="1.58543">
        <ele>1291</ele>
        <time>2015-03-21T08:39:25.000Z</time>
      </trkpt>
      <trkpt lat="42.53692" lon="1.58549">
        <ele>1291</ele>
        <time>2015-03-21T08:39:32.000Z</time>
      </trkpt>
      <trkpt lat="42.53692" lon="1.5855">
        <ele>1291</ele>
        <time>2015-03-21T08:39:33.000Z</time>
      </trkpt>
      <trkpt lat="42.53692" lon="1.58551">
        <ele>1291</ele>
        <time>2015-03-21T08:39:34.000Z</time>
      </trkpt>
      <trkpt lat="42.53692" lon="1.58553">
        <ele>1291</ele>
        <time>2015-03-21T08:39:35.000Z</time>
      </trkpt>
      <trkpt lat="42.53693" lon="1.58554">
        <ele>1291</ele>
        <time>2015-03-21T08:39:36.000Z</time>
      </trkpt>
      <trkpt lat="42.53697" lon="1.58561">
        <ele>1291</ele>
        <time>2015-03-21T08:39:42.000Z</time>
      </trkpt>
      <trkpt lat="42.53697" lon="1.58562">
        <ele>1291</ele>
        <time>2015-03-21T08:39:43.000Z</time>
      </trkpt>
      <trkpt lat="42.537" lon="1.58569">
        <ele>1291</ele>
        <time>2015-03-21T08:39:48.000Z</time>
      </trkpt>
      <trkpt lat="42.53706" lon="1.58573">
        <ele>1291</ele>
        <time>2015-03-21T08:39:55.000Z</time>
      </trkpt>
      <trkpt lat="42.53711" lon="1.58581">
        <ele>1291</ele>
        <time>2015-03-21T08:40:02.000Z</time>
      </trkpt>
      <trkpt lat="42.53716" lon="1.58588">
        <ele>1295</ele>
        <time>2015-03-21T08:40:09.000Z</time>
      </trkpt>
      <trkpt lat="42.5372" lon="1.58598">
        <ele>1295</ele>
        <time>2015-03-21T08:40:18.000Z</time>
      </trkpt>
      <trkpt lat="42.53722" lon="1.586">
        <ele>1295</ele>
        <time>2015-03-21T08:40:21.000Z</time>
      </trkpt>
      <trkpt lat="42.53725" lon="1.58603">
        <ele>1295</ele>
        <time>2015-03-21T08:40:24.000Z</time>
      </trkpt>
      <trkpt lat="42.53729" lon="1.58612">
        <ele>1296</ele>
        <time>2015-03-21T08:40:31.000Z</time>
      </trkpt>
      <trkpt lat="42.53733" lon="1.5862">
        <ele>1296</ele>
        <time>2015-03-21T08:40:39.000Z</time>
      </trkpt>
      <trkpt lat="42.53734" lon="1.58623">
        <ele>1296</ele>
        <time>2015-03-21T08:40:41.000Z</time>
      </trkpt>
      <trkpt lat="42.53736" lon="1.58625">
        <ele>1296</ele>
        <time>2015-03-21T08:40:46.000Z</time>
      </trkpt>
      <trkpt lat="42.53741" lon="1.58634">
        <ele>1297</ele>
        <time>2015-03-21T08:40:54.000Z</time>
      </trkpt>
      <trkpt lat="42.53749" lon="1.58649">
        <ele>1297</ele>
        <time>2015-03-21T08:41:04.000Z</time>
      </trkpt>
      <trkpt lat="42.53754" lon="1.58655">
        <ele>1297</ele>
        <time>2015-03-21T08:41:11.000Z</time>
      </trkpt>
      <trkpt lat="42.53759" lon="1.58663">
        <ele>1297</ele>
        <time>2015-03-21T08:41:19.000Z</time>
      </trkpt>
      <trkpt lat="42.53763" lon="1.58667">
        <ele>1299</ele>
        <time>2015-03-21T08:41:24.000Z</time>
      </trkpt>
      <trkpt lat="42.53764" lon="1.5867">
        <ele>1299</ele>
        <time>2015-03-21T08:41:25.000Z</time>
      </trkpt>
      <trkpt lat="42.53765" lon="1.58671">
        <ele>1299</ele>
        <time>2015-03-21T08:41:26.000Z</time>
      </trkpt>
      <trkpt lat="42.53766" lon="1.58672">
        <ele>1299</ele>
        <time>2015-03-21T08:41:27.000Z</time>
      </trkpt>
      <trkpt lat="42.53767" lon="1.58673">
        <ele>1299</ele>
        <time>2015-03-21T08:41:28.000Z</time>
      </trkpt>
      <trkpt lat="42.53771" lon="1.58681">
        <ele>1300</ele>
        <time>2015-03-21T08:41:34.000Z</time>
      </trkpt>
      <trkpt lat="42.53777" lon="1.58685">
        <ele>1300</ele>
        <time>2015-03-21T08:41:40.000Z</time>
      </trkpt>
      <trkpt lat="42.53781" lon="1.58691">
        <ele>1300</ele>
        <time>2015-03-21T08:41:47.000Z</time>
      </trkpt>
      <trkpt lat="42.53785" lon="1.58698">
        <ele>1301</ele>
        <time>2015-03-21T08:41:53.000Z</time>
      </trkpt>
      <trkpt lat="42.53787" lon="1.58699">
        <ele>1301</ele>
        <time>2015-03-21T08:41:54.000Z</time>
      </trkpt>
      <trkpt lat="42.53794" lon="1.58707">
        <ele>1301</ele>
        <time>2015-03-21T08:42:02.000Z</time>
      </trkpt>
      <trkpt lat="42.53797" lon="1.58711">
        <ele>1301</ele>
        <time>2015-03-21T08:42:06.000Z</time>
      </trkpt>
      <trkpt lat="42.53798" lon="1.58713">
        <ele>1301</ele>
        <time>2015-03-21T08:42:08.000Z</time>
      </trkpt>
      <trkpt lat="42.53802" lon="1.58718">
        <ele>1301</ele>
        <time>2015-03-21T08:42:15.000Z</time>
      </trkpt>
      <trkpt lat="42.53804" lon="1.58721">
        <ele>1301</ele>
        <time>2015-03-21T08:42:18.000Z</time>
      </trkpt>
      <trkpt lat="42.53805" lon="1.58721">
        <ele>1301</ele>
        <time>2015-03-21T08:42:19.000Z</time>
      </trkpt>
      <trkpt lat="42.53805" lon="1.58723">
        <ele>1301</ele>
        <time>2015-03-21T08:42:20.000Z</time>
      </trkpt>
      <trkpt lat="42.53806" lon="1.58723">
        <ele>1301</ele>
        <time>2015-03-21T08:42:21.000Z</time>
      </trkpt>
      <trkpt lat="42.53806" lon="1.58725">
        <ele>1301</ele>
        <time>2015-03-21T08:42:22.000Z</time>
      </trkpt>
      <trkpt lat="42.53809" lon="1.58732">
        <ele>1301</ele>
        <time>2015-03-21T08:42:28.000Z</time>
      </trkpt>
      <trkpt lat="42.53811" lon="1.58741">
        <ele>1301</ele>
        <time>2015-03-21T08:42:35.000Z</time>
      </trkpt>
      <trkpt lat="42.53812" lon="1.58744">
        <ele>1301</ele>
        <time>2015-03-21T08:42:37.000Z</time>
      </trkpt>
      <trkpt lat="42.53815" lon="1.58747">
        <ele>1301</ele>
        <time>2015-03-21T08:42:41.000Z</time>
      </trkpt>
      <trkpt lat="42.53824" lon="1.58751">
        <ele>1302</ele>
        <time>2015-03-21T08:42:49.000Z</time>
      </trkpt>
      <trkpt lat="42.53833" lon="1.58751">
        <ele>1300</ele>
        <time>2015-03-21T08:42:57.000Z</time>
      </trkpt>
      <trkpt lat="42.53834" lon="1.5875">
        <ele>1300</ele>
        <time>2015-03-21T08:42:58.000Z</time>
      </trkpt>
      <trkpt lat="42.53837" lon="1.58743">
        <ele>1303</ele>
        <time>2015-03-21T08:43:03.000Z</time>
      </trkpt>
      <trkpt lat="42.53838" lon="1.5874">
        <ele>1303</ele>
        <time>2015-03-21T08:43:05.000Z</time>
      </trkpt>
      <trkpt lat="42.53838" lon="1.58735">
        <ele>1304</ele>
        <time>2015-03-21T08:43:09.000Z</time>
      </trkpt>
      <trkpt lat="42.53836" lon="1.58726">
        <ele>1305</ele>
        <time>2015-03-21T08:43:15.000Z</time>
      </trkpt>
      <trkpt lat="42.53836" lon="1.5872">
        <ele>1306</ele>
        <time>2015-03-21T08:43:20.000Z</time>
      </trkpt>
      <trkpt lat="42.53836" lon="1.58719">
        <ele>1306</ele>
        <time>2015-03-21T08:43:21.000Z</time>
      </trkpt>
      <trkpt lat="42.53836" lon="1.58718">
        <ele>1306</ele>
        <time>2015-03-21T08:43:22.000Z</time>
      </trkpt>
      <trkpt lat="42.53836" lon="1.58717">
        <ele>1306</ele>
        <time>2015-03-21T08:43:23.000Z</time>
      </trkpt>
      <trkpt lat="42.53837" lon="1.58716">
        <ele>1306</ele>
        <time>2015-03-21T08:43:24.000Z</time>
      </trkpt>
      <trkpt lat="42.53838" lon="1.58709">
        <ele>1306</ele>
        <time>2015-03-21T08:43:29.000Z</time>
      </trkpt>
      <trkpt lat="42.53839" lon="1.58706">
        <ele>1306</ele>
        <time>2015-03-21T08:43:33.000Z</time>
      </trkpt>
      <trkpt lat="42.5384" lon="1.58706">
        <ele>1306</ele>
        <time>2015-03-21T08:43:34.000Z</time>
      </trkpt>
      <trkpt lat="42.5384" lon="1.58705">
        <ele>1306</ele>
        <time>2015-03-21T08:43:35.000Z</time>
      </trkpt>
      <trkpt lat="42.53841" lon="1.58705">
        <ele>1306</ele>
        <time>2015-03-21T08:43:36.000Z</time>
      </trkpt>
      <trkpt lat="42.53842" lon="1.58704">
        <ele>1306</ele>
        <time>2015-03-21T08:43:37.000Z</time>
      </trkpt>
      <trkpt lat="42.53847" lon="1.587">
        <ele>1307</ele>
        <time>2015-03-21T08:43:43.000Z</time>
      </trkpt>
      <trkpt lat="42.53848" lon="1.58699">
        <ele>1307</ele>
        <time>2015-03-21T08:43:44.000Z</time>
      </trkpt>
      <trkpt lat="42.53848" lon="1.58699">
        <ele>1307</ele>
        <time>2015-03-21T08:43:45.000Z</time>
      </trkpt>
      <trkpt lat="42.5385" lon="1.58697">
        <ele>1307</ele>
        <time>2015-03-21T08:43:46.000Z</time>
      </trkpt>
      <trkpt lat="42.5385" lon="1.58698">
        <ele>1307</ele>
        <time>2015-03-21T08:43:47.000Z</time>
      </trkpt>
      <trkpt lat="42.53851" lon="1.58695">
        <ele>1307</ele>
        <time>2015-03-21T08:43:50.000Z</time>
      </trkpt>
      <trkpt lat="42.53854" lon="1.5869">
        <ele>1307</ele>
        <time>2015-03-21T08:43:55.000Z</time>
      </trkpt>
      <trkpt lat="42.53855" lon="1.58688">
        <ele>1307</ele>
        <time>2015-03-21T08:43:56.000Z</time>
      </trkpt>
      <trkpt lat="42.53855" lon="1.58688">
        <ele>1307</ele>
        <time>2015-03-21T08:43:57.000Z</time>
      </trkpt>
      <trkpt lat="42.53855" lon="1.58686">
        <ele>1307</ele>
        <time>2015-03-21T08:43:58.000Z</time>
      </trkpt>
      <trkpt lat="42.53855" lon="1.58684">
        <ele>1307</ele>
        <time>2015-03-21T08:43:59.000Z</time>
      </trkpt>
      <trkpt lat="42.53857" lon="1.58675">
        <ele>1307</ele>
        <time>2015-03-21T08:44:06.000Z</time>
      </trkpt>
      <trkpt lat="42.53858" lon="1.58673">
        <ele>1307</ele>
        <time>2015-03-21T08:44:07.000Z</time>
      </trkpt>
      <trkpt lat="42.53858" lon="1.58672">
        <ele>1307</ele>
        <time>2015-03-21T08:44:08.000Z</time>
      </trkpt>
      <trkpt lat="42.53858" lon="1.5867">
        <ele>1307</ele>
        <time>2015-03-21T08:44:09.000Z</time>
      </trkpt>
      <trkpt lat="42.53857" lon="1.58669">
        <ele>1307</ele>
        <time>2015-03-21T08:44:10.000Z</time>
      </trkpt>
      <trkpt lat="42.53859" lon="1.58664">
        <ele>1307</ele>
        <time>2015-03-21T08:44:14.000Z</time>
      </trkpt>
      <trkpt lat="42.5386" lon="1.58663">
        <ele>1308</ele>
        <time>2015-03-21T08:44:15.000Z</time>
      </trkpt>
      <trkpt lat="42.53862" lon="1.58656">
        <ele>1308</ele>
        <time>2015-03-21T08:44:20.000Z</time>
      </trkpt>
      <trkpt lat="42.53865" lon="1.58648">
        <ele>1309</ele>
        <time>2015-03-21T08:44:27.000Z</time>
      </trkpt>
      <trkpt lat="42.53865" lon="1.58647">
        <ele>1309</ele>
        <time>2015-03-21T08:44:28.000Z</time>
      </trkpt>
      <trkpt lat="42.53869" lon="1.58643">
        <ele>1310</ele>
        <time>2015-03-21T08:44:32.000Z</time>
      </trkpt>
      <trkpt lat="42.53873" lon="1.58639">
        <ele>1311</ele>
        <time>2015-03-21T08:44:38.000Z</time>
      </trkpt>
      <trkpt lat="42.53876" lon="1.58632">
        <ele>1311</ele>
        <time>2015-03-21T08:44:44.000Z</time>
      </trkpt>
      <trkpt lat="42.53878" lon="1.58624">
        <ele>1311</ele>
        <time>2015-03-21T08:44:50.000Z</time>
      </trkpt>
      <trkpt lat="42.53879" lon="1.58623">
        <ele>1311</ele>
        <time>2015-03-21T08:44:52.000Z</time>
      </trkpt>
      <trkpt lat="42.5388" lon="1.58622">
        <ele>1311</ele>
        <time>2015-03-21T08:44:53.000Z</time>
      </trkpt>
      <trkpt lat="42.5388" lon="1.58622">
        <ele>1311</ele>
        <time>2015-03-21T08:44:54.000Z</time>
      </trkpt>
      <trkpt lat="42.5388" lon="1.58622">
        <ele>1311</ele>
        <time>2015-03-21T08:44:55.000Z</time>
      </trkpt>
      <trkpt lat="42.53881" lon="1.58621">
        <ele>1312</ele>
        <time>2015-03-21T08:44:56.000Z</time>
      </trkpt>
      <trkpt lat="42.53881" lon="1.58618">
        <ele>1311</ele>
        <time>2015-03-21T08:44:59.000Z</time>
      </trkpt>
      <trkpt lat="42.53882" lon="1.58611">
        <ele>1312</ele>
        <time>2015-03-21T08:45:05.000Z</time>
      </trkpt>
      <trkpt lat="42.53882" lon="1.5861">
        <ele>1312</ele>
        <time>2015-03-21T08:45:06.000Z</time>
      </trkpt>
      <trkpt lat="42.53883" lon="1.58608">
        <ele>1312</ele>
        <time>2015-03-21T08:45:07.000Z</time>
      </trkpt>
      <trkpt lat="42.53884" lon="1.58606">
        <ele>1312</ele>
        <time>2015-03-21T08:45:08.000Z</time>
      </trkpt>
      <trkpt lat="42.53884" lon="1.58606">
        <ele>1312</ele>
        <time>2015-03-21T08:45:09.000Z</time>
      </trkpt>
      <trkpt lat="42.53885" lon="1.58605">
        <ele>1312</ele>
        <time>2015-03-21T08:45:11.000Z</time>
      </trkpt>
      <trkpt lat="42.53887" lon="1.58596">
        <ele>1313</ele>
        <time>2015-03-21T08:45:17.000Z</time>
      </trkpt>
      <trkpt lat="42.53887" lon="1.58595">
        <ele>1313</ele>
        <time>2015-03-21T08:45:18.000Z</time>
      </trkpt>
      <trkpt lat="42.53887" lon="1.58594">
        <ele>1313</ele>
        <time>2015-03-21T08:45:19.000Z</time>
      </trkpt>
      <trkpt lat="42.53888" lon="1.58592">
        <ele>1313</ele>
        <time>2015-03-21T08:45:20.000Z</time>
      </trkpt>
      <trkpt lat="42.53889" lon="1.58591">
        <ele>1313</ele>
        <time>2015-03-21T08:45:21.000Z</time>
      </trkpt>
      <trkpt lat="42.5389" lon="1.58589">
        <ele>1313</ele>
        <time>2015-03-21T08:45:24.000Z</time>
      </trkpt>
      <trkpt lat="42.53893" lon="1.58585">
        <ele>1314</ele>
        <time>2015-03-21T08:45:30.000Z</time>
      </trkpt>
      <trkpt lat="42.53895" lon="1.58586">
        <ele>1315</ele>
        <time>2015-03-21T08:45:32.000Z</time>
      </trkpt>
      <trkpt lat="42.53895" lon="1.58586">
        <ele>1315</ele>
        <time>2015-03-21T08:45:33.000Z</time>
      </trkpt>
      <trkpt lat="42.53897" lon="1.58587">
        <ele>1315</ele>
        <time>2015-03-21T08:45:34.000Z</time>
      </trkpt>
      <trkpt lat="42.53897" lon="1.58587">
        <ele>1315</ele>
        <time>2015-03-21T08:45:35.000Z</time>
      </trkpt>
      <trkpt lat="42.53899" lon="1.58587">
        <ele>1315</ele>
        <time>2015-03-21T08:45:36.000Z</time>
      </trkpt>
      <trkpt lat="42.53899" lon="1.58588">
        <ele>1315</ele>
        <time>2015-03-21T08:45:37.000Z</time>
      </trkpt>
      <trkpt lat="42.53902" lon="1.58594">
        <ele>1316</ele>
        <time>2015-03-21T08:45:44.000Z</time>
      </trkpt>
      <trkpt lat="42.53902" lon="1.58595">
        <ele>1316</ele>
        <time>2015-03-21T08:45:45.000Z</time>
      </trkpt>
      <trkpt lat="42.53902" lon="1.58595">
        <ele>1316</ele>
        <time>2015-03-21T08:45:46.000Z</time>
      </trkpt>
      <trkpt lat="42.53902" lon="1.58596">
        <ele>1315</ele>
        <time>2015-03-21T08:45:47.000Z</time>
      </trkpt>
      <trkpt lat="42.53902" lon="1.58598">
        <ele>1315</ele>
        <time>2015-03-21T08:45:48.000Z</time>
      </trkpt>
      <trkpt lat="42.53902" lon="1.586">
        <ele>1315</ele>
        <time>2015-03-21T08:45:49.000Z</time>
      </trkpt>
      <trkpt lat="42.53903" lon="1.58608">
        <ele>1315</ele>
        <time>2015-03-21T08:45:55.000Z</time>
      </trkpt>
      <trkpt lat="42.53902" lon="1.58618">
        <ele>1314</ele>
        <time>2015-03-21T08:46:04.000Z</time>
      </trkpt>
      <trkpt lat="42.53897" lon="1.58621">
        <ele>1314</ele>
        <time>2015-03-21T08:46:11.000Z</time>
      </trkpt>
      <trkpt lat="42.53893" lon="1.58628">
        <ele>1314</ele>
        <time>2015-03-21T08:46:19.000Z</time>
      </trkpt>
      <trkpt lat="42.53892" lon="1.5863">
        <ele>1313</ele>
        <time>2015-03-21T08:46:22.000Z</time>
      </trkpt>
      <trkpt lat="42.53892" lon="1.58632">
        <ele>1314</ele>
        <time>2015-03-21T08:46:23.000Z</time>
      </trkpt>
      <trkpt lat="42.53892" lon="1.58633">
        <ele>1314</ele>
        <time>2015-03-21T08:46:24.000Z</time>
      </trkpt>
      <trkpt lat="42.53892" lon="1.58634">
        <ele>1314</ele>
        <time>2015-03-21T08:46:25.000Z</time>
      </trkpt>
      <trkpt lat="42.53892" lon="1.58634">
        <ele>1314</ele>
        <time>2015-03-21T08:46:26.000Z</time>
      </trkpt>
      <trkpt lat="42.53894" lon="1.5864">
        <ele>1314</ele>
        <time>2015-03-21T08:46:33.000Z</time>
      </trkpt>
      <trkpt lat="42.53894" lon="1.5864">
        <ele>1314</ele>
        <time>2015-03-21T08:46:34.000Z</time>
      </trkpt>
      <trkpt lat="42.53895" lon="1.58642">
        <ele>1315</ele>
        <time>2015-03-21T08:46:35.000Z</time>
      </trkpt>
      <trkpt lat="42.53895" lon="1.58642">
        <ele>1315</ele>
        <time>2015-03-21T08:46:36.000Z</time>
      </trkpt>
      <trkpt lat="42.53895" lon="1.58643">
        <ele>1315</ele>
        <time>2015-03-21T08:46:37.000Z</time>
      </trkpt>
      <trkpt lat="42.53895" lon="1.58649">
        <ele>1315</ele>
        <time>2015-03-21T08:46:43.000Z</time>
      </trkpt>
      <trkpt lat="42.53897" lon="1.58653">
        <ele>1316</ele>
        <time>2015-03-21T08:46:47.000Z</time>
      </trkpt>
      <trkpt lat="42.53897" lon="1.58653">
        <ele>1316</ele>
        <time>2015-03-21T08:46:48.000Z</time>
      </trkpt>
      <trkpt lat="42.53898" lon="1.58654">
        <ele>1317</ele>
        <time>2015-03-21T08:46:49.000Z</time>
      </trkpt>
      <trkpt lat="42.53898" lon="1.58654">
        <ele>1317</ele>
        <time>2015-03-21T08:46:50.000Z</time>
      </trkpt>
      <trkpt lat="42.53899" lon="1.58655">
        <ele>1317</ele>
        <time>2015-03-21T08:46:51.000Z</time>
      </trkpt>
      <trkpt lat="42.53901" lon="1.58657">
        <ele>1318</ele>
        <time>2015-03-21T08:46:54.000Z</time>
      </trkpt>
      <trkpt lat="42.53904" lon="1.58662">
        <ele>1319</ele>
        <time>2015-03-21T08:47:01.000Z</time>
      </trkpt>
      <trkpt lat="42.53905" lon="1.58663">
        <ele>1320</ele>
        <time>2015-03-21T08:47:03.000Z</time>
      </trkpt>
      <trkpt lat="42.53905" lon="1.58664">
        <ele>1320</ele>
        <time>2015-03-21T08:47:04.000Z</time>
      </trkpt>
      <trkpt lat="42.53906" lon="1.58664">
        <ele>1320</ele>
        <time>2015-03-21T08:47:05.000Z</time>
      </trkpt>
      <trkpt lat="42.53906" lon="1.58665">
        <ele>1321</ele>
        <time>2015-03-21T08:47:06.000Z</time>
      </trkpt>
      <trkpt lat="42.53907" lon="1.58666">
        <ele>1321</ele>
        <time>2015-03-21T08:47:07.000Z</time>
      </trkpt>
      <trkpt lat="42.53907" lon="1.58669">
        <ele>1321</ele>
        <time>2015-03-21T08:47:14.000Z</time>
      </trkpt>
      <trkpt lat="42.53907" lon="1.58669">
        <ele>1321</ele>
        <time>2015-03-21T08:47:23.000Z</time>
      </trkpt>
      <trkpt lat="42.53907" lon="1.58669">
        <ele>1321</ele>
        <time>2015-03-21T08:47:24.000Z</time>
      </trkpt>
      <trkpt lat="42.53907" lon="1.58669">
        <ele>1321</ele>
        <time>2015-03-21T08:47:25.000Z</time>
      </trkpt>
      <trkpt lat="42.53907" lon="1.58669">
        <ele>1321</ele>
        <time>2015-03-21T08:47:26.000Z</time>
      </trkpt>
      <trkpt lat="42.53907" lon="1.58669">
        <ele>1321</ele>
        <time>2015-03-21T08:47:27.000Z</time>
      </trkpt>
      <trkpt lat="42.53907" lon="1.5867">
        <ele>1320</ele>
        <time>2015-03-21T08:47:33.000Z</time>
      </trkpt>
      <trkpt lat="42.53907" lon="1.5867">
        <ele>1320</ele>
        <time>2015-03-21T08:47:40.000Z</time>
      </trkpt>
      <trkpt lat="42.53908" lon="1.58678">
        <ele>1319</ele>
        <time>2015-03-21T08:47:46.000Z</time>
      </trkpt>
      <trkpt lat="42.53908" lon="1.58679">
        <ele>1318</ele>
        <time>2015-03-21T08:47:47.000Z</time>
      </trkpt>
      <trkpt lat="42.53908" lon="1.5868">
        <ele>1318</ele>
        <time>2015-03-21T08:47:48.000Z</time>
      </trkpt>
      <trkpt lat="42.53909" lon="1.58681">
        <ele>1318</ele>
        <time>2015-03-21T08:47:49.000Z</time>
      </trkpt>
      <trkpt lat="42.53909" lon="1.58682">
        <ele>1318</ele>
        <time>2015-03-21T08:47:50.000Z</time>
      </trkpt>
      <trkpt lat="42.5391" lon="1.58685">
        <ele>1317</ele>
        <time>2015-03-21T08:47:54.000Z</time>
      </trkpt>
      <trkpt lat="42.5391" lon="1.58685">
        <ele>1317</ele>
        <time>2015-03-21T08:47:56.000Z</time>
      </trkpt>
      <trkpt lat="42.5391" lon="1.58687">
        <ele>1317</ele>
        <time>2015-03-21T08:47:57.000Z</time>
      </trkpt>
      <trkpt lat="42.5391" lon="1.58687">
        <ele>1317</ele>
        <time>2015-03-21T08:47:58.000Z</time>
      </trkpt>
      <trkpt lat="42.53911" lon="1.58689">
        <ele>1316</ele>
        <time>2015-03-21T08:47:59.000Z</time>
      </trkpt>
      <trkpt lat="42.53912" lon="1.5869">
        <ele>1316</ele>
        <time>2015-03-21T08:48:01.000Z</time>
      </trkpt>
      <trkpt lat="42.53914" lon="1.58691">
        <ele>1316</ele>
        <time>2015-03-21T08:48:04.000Z</time>
      </trkpt>
      <trkpt lat="42.53914" lon="1.58692">
        <ele>1316</ele>
        <time>2015-03-21T08:48:05.000Z</time>
      </trkpt>
      <trkpt lat="42.53915" lon="1.58693">
        <ele>1316</ele>
        <time>2015-03-21T08:48:06.000Z</time>
      </trkpt>
      <trkpt lat="42.53915" lon="1.58694">
        <ele>1316</ele>
        <time>2015-03-21T08:48:07.000Z</time>
      </trkpt>
      <trkpt lat="42.53915" lon="1.58695">
        <ele>1315</ele>
        <time>2015-03-21T08:48:08.000Z</time>
      </trkpt>
      <trkpt lat="42.53916" lon="1.58696">
        <ele>1315</ele>
        <time>2015-03-21T08:48:14.000Z</time>
      </trkpt>
      <trkpt lat="42.53919" lon="1.58696">
        <ele>1331</ele>
        <time>2015-03-21T08:48:20.000Z</time>
      </trkpt>
      <trkpt lat="42.53919" lon="1.58696">
        <ele>1331</ele>
        <time>2015-03-21T08:48:31.000Z</time>
      </trkpt>
      <trkpt lat="42.53919" lon="1.58696">
        <ele>1331</ele>
        <time>2015-03-21T08:48:32.000Z</time>
      </trkpt>
      <trkpt lat="42.5392" lon="1.58697">
        <ele>1331</ele>
        <time>2015-03-21T08:48:33.000Z</time>
      </trkpt>
      <trkpt lat="42.53921" lon="1.58697">
        <ele>1331</ele>
        <time>2015-03-21T08:48:34.000Z</time>
      </trkpt>
      <trkpt lat="42.53922" lon="1.58697">
        <ele>1331</ele>
        <time>2015-03-21T08:48:35.000Z</time>
      </trkpt>
      <trkpt lat="42.53923" lon="1.58697">
        <ele>1331</ele>
        <time>2015-03-21T08:48:36.000Z</time>
      </trkpt>
      <trkpt lat="42.53924" lon="1.58698">
        <ele>1331</ele>
        <time>2015-03-21T08:48:38.000Z</time>
      </trkpt>
      <trkpt lat="42.53925" lon="1.58701">
        <ele>1331</ele>
        <time>2015-03-21T08:48:44.000Z</time>
      </trkpt>
      <trkpt lat="42.53923" lon="1.58702">
        <ele>1331</ele>
        <time>2015-03-21T08:48:52.000Z</time>
      </trkpt>
      <trkpt lat="42.53922" lon="1.58703">
        <ele>1331</ele>
        <time>2015-03-21T08:48:54.000Z</time>
      </trkpt>
      <trkpt lat="42.53922" lon="1.58703">
        <ele>1331</ele>
        <time>2015-03-21T08:48:55.000Z</time>
      </trkpt>
      <trkpt lat="42.53922" lon="1.58703">
        <ele>1331</ele>
        <time>2015-03-21T08:48:56.000Z</time>
      </trkpt>
      <trkpt lat="42.53922" lon="1.58703">
        <ele>1331</ele>
        <time>2015-03-21T08:48:57.000Z</time>
      </trkpt>
      <trkpt lat="42.53922" lon="1.58703">
        <ele>1331</ele>
        <time>2015-03-21T08:48:58.000Z</time>
      </trkpt>
      <trkpt lat="42.5392" lon="1.58703">
        <ele>1331</ele>
        <time>2015-03-21T08:49:00.000Z</time>
      </trkpt>
      <trkpt lat="42.53919" lon="1.58708">
        <ele>1330</ele>
        <time>2015-03-21T08:49:08.000Z</time>
      </trkpt>
      <trkpt lat="42.5392" lon="1.58711">
        <ele>1330</ele>
        <time>2015-03-21T08:49:13.000Z</time>
      </trkpt>
      <trkpt lat="42.53921" lon="1.5871">
        <ele>1330</ele>
        <time>2015-03-21T08:49:14.000Z</time>
      </trkpt>
      <trkpt lat="42.53922" lon="1.58711">
        <ele>1330</ele>
        <time>2015-03-21T08:49:15.000Z</time>
      </trkpt>
      <trkpt lat="42.53922" lon="1.58711">
        <ele>1330</ele>
        <time>2015-03-21T08:49:16.000Z</time>
      </trkpt>
      <trkpt lat="42.53923" lon="1.5871">
        <ele>1330</ele>
        <time>2015-03-21T08:49:17.000Z</time>
      </trkpt>
      <trkpt lat="42.53927" lon="1.58709">
        <ele>1331</ele>
        <time>2015-03-21T08:49:23.000Z</time>
      </trkpt>
      <trkpt lat="42.53927" lon="1.58709">
        <ele>1331</ele>
        <time>2015-03-21T08:49:24.000Z</time>
      </trkpt>
      <trkpt lat="42.53927" lon="1.58709">
        <ele>1331</ele>
        <time>2015-03-21T08:49:25.000Z</time>
      </trkpt>
      <trkpt lat="42.53928" lon="1.58708">
        <ele>1331</ele>
        <time>2015-03-21T08:49:26.000Z</time>
      </trkpt>
      <trkpt lat="42.53928" lon="1.58708">
        <ele>1331</ele>
        <time>2015-03-21T08:49:27.000Z</time>
      </trkpt>
      <trkpt lat="42.53928" lon="1.58708">
        <ele>1331</ele>
        <time>2015-03-21T08:49:30.000Z</time>
      </trkpt>
      <trkpt lat="42.53928" lon="1.58708">
        <ele>1331</ele>
        <time>2015-03-21T08:49:31.000Z</time>
      </trkpt>
      <trkpt lat="42.53928" lon="1.58708">
        <ele>1331</ele>
        <time>2015-03-21T08:49:32.000Z</time>
      </trkpt>
      <trkpt lat="42.53929" lon="1.58709">
        <ele>1331</ele>
        <time>2015-03-21T08:49:33.000Z</time>
      </trkpt>
      <trkpt lat="42.53929" lon="1.58709">
        <ele>1331</ele>
        <time>2015-03-21T08:49:34.000Z</time>
      </trkpt>
      <trkpt lat="42.53928" lon="1.5871">
        <ele>1331</ele>
        <time>2015-03-21T08:49:35.000Z</time>
      </trkpt>
      <trkpt lat="42.53927" lon="1.58713">
        <ele>1330</ele>
        <time>2015-03-21T08:49:42.000Z</time>
      </trkpt>
      <trkpt lat="42.53927" lon="1.58714">
        <ele>1330</ele>
        <time>2015-03-21T08:49:45.000Z</time>
      </trkpt>
      <trkpt lat="42.53927" lon="1.58714">
        <ele>1330</ele>
        <time>2015-03-21T08:49:46.000Z</time>
      </trkpt>
      <trkpt lat="42.53927" lon="1.58714">
        <ele>1330</ele>
        <time>2015-03-21T08:49:47.000Z</time>
      </trkpt>
      <trkpt lat="42.53927" lon="1.58714">
        <ele>1330</ele>
        <time>2015-03-21T08:49:48.000Z</time>
      </trkpt>
      <trkpt lat="42.53927" lon="1.58714">
        <ele>1330</ele>
        <time>2015-03-21T08:49:49.000Z</time>
      </trkpt>
      <trkpt lat="42.53927" lon="1.58714">
        <ele>1330</ele>
        <time>2015-03-21T08:49:50.000Z</time>
      </trkpt>
      <trkpt lat="42.53927" lon="1.58714">
        <ele>1330</ele>
        <time>2015-03-21T08:49:53.000Z</time>
      </trkpt>
      <trkpt lat="42.53927" lon="1.58714">
        <ele>1330</ele>
        <time>2015-03-21T08:49:54.000Z</time>
      </trkpt>
      <trkpt lat="42.53927" lon="1.58714">
        <ele>1330</ele>
        <time>2015-03-21T08:49:55.000Z</time>
      </trkpt>
      <trkpt lat="42.53927" lon="1.58714">
        <ele>1330</ele>
        <time>2015-03-21T08:49:56.000Z</time>
      </trkpt>
      <trkpt lat="42.53927" lon="1.58714">
        <ele>1330</ele>
        <time>2015-03-21T08:49:57.000Z</time>
      </trkpt>
      <trkpt lat="42.53927" lon="1.58714">
        <ele>1330</ele>
        <time>2015-03-21T08:49:59.000Z</time>
      </trkpt>
      <trkpt lat="42.53927" lon="1.58714">
        <ele>1330</ele>
        <time>2015-03-21T08:50:00.000Z</time>
      </trkpt>
      <trkpt lat="42.53927" lon="1.58714">
        <ele>1330</ele>
        <time>2015-03-21T08:50:01.000Z</time>
      </trkpt>
      <trkpt lat="42.53927" lon="1.58714">
        <ele>1330</ele>
        <time>2015-03-21T08:50:02.000Z</time>
      </trkpt>
      <trkpt lat="42.53927" lon="1.58714">
        <ele>1330</ele>
        <time>2015-03-21T08:50:03.000Z</time>
      </trkpt>
      <trkpt lat="42.5393" lon="1.58715">
        <ele>1331</ele>
        <time>2015-03-21T08:50:05.000Z</time>
      </trkpt>
      <trkpt lat="42.5393" lon="1.58715">
        <ele>1331</ele>
        <time>2015-03-21T08:50:06.000Z</time>
      </trkpt>
      <trkpt lat="42.5393" lon="1.58715">
        <ele>1331</ele>
        <time>2015-03-21T08:50:07.000Z</time>
      </trkpt>
      <trkpt lat="42.5393" lon="1.58715">
        <ele>1331</ele>
        <time>2015-03-21T08:50:08.000Z</time>
      </trkpt>
      <trkpt lat="42.53929" lon="1.58714">
        <ele>1331</ele>
        <time>2015-03-21T08:50:09.000Z</time>
      </trkpt>
      <trkpt lat="42.53929" lon="1.58714">
        <ele>1331</ele>
        <time>2015-03-21T08:50:10.000Z</time>
      </trkpt>
      <trkpt lat="42.53929" lon="1.58714">
        <ele>1331</ele>
        <time>2015-03-21T08:50:12.000Z</time>
      </trkpt>
      <trkpt lat="42.53929" lon="1.58714">
        <ele>1331</ele>
        <time>2015-03-21T08:50:24.000Z</time>
      </trkpt>
      <trkpt lat="42.53928" lon="1.58714">
        <ele>1330</ele>
        <time>2015-03-21T08:50:32.000Z</time>
      </trkpt>
      <trkpt lat="42.53928" lon="1.58714">
        <ele>1330</ele>
        <time>2015-03-21T08:50:41.000Z</time>
      </trkpt>
      <trkpt lat="42.53928" lon="1.58713">
        <ele>1331</ele>
        <time>2015-03-21T08:50:53.000Z</time>
      </trkpt>
      <trkpt lat="42.53928" lon="1.58713">
        <ele>1331</ele>
        <time>2015-03-21T08:51:03.000Z</time>
      </trkpt>
      <trkpt lat="42.53928" lon="1.58713">
        <ele>1331</ele>
        <time>2015-03-21T08:51:12.000Z</time>
      </trkpt>
      <trkpt lat="42.53927" lon="1.58716">
        <ele>1330</ele>
        <time>2015-03-21T08:51:24.000Z</time>
      </trkpt>
      <trkpt lat="42.53927" lon="1.58716">
        <ele>1330</ele>
        <time>2015-03-21T08:51:35.000Z</time>
      </trkpt>
      <trkpt lat="42.53927" lon="1.58716">
        <ele>1330</ele>
        <time>2015-03-21T08:51:50.000Z</time>
      </trkpt>
      <trkpt lat="42.53927" lon="1.58716">
        <ele>1330</ele>
        <time>2015-03-21T08:52:00.000Z</time>
      </trkpt>
      <trkpt lat="42.53927" lon="1.58716">
        <ele>1330</ele>
        <time>2015-03-21T08:52:13.000Z</time>
      </trkpt>
      <trkpt lat="42.53927" lon="1.58716">
        <ele>1330</ele>
        <time>2015-03-21T08:52:24.000Z</time>
      </trkpt>
      <trkpt lat="42.53927" lon="1.58716">
        <ele>1330</ele>
        <time>2015-03-21T08:52:38.000Z</time>
      </trkpt>
      <trkpt lat="42.53928" lon="1.58715">
        <ele>1330</ele>
        <time>2015-03-21T08:52:51.000Z</time>
      </trkpt>
      <trkpt lat="42.53928" lon="1.58715">
        <ele>1330</ele>
        <time>2015-03-21T08:53:05.000Z</time>
      </trkpt>
      <trkpt lat="42.53928" lon="1.58715">
        <ele>1330</ele>
        <time>2015-03-21T08:53:19.000Z</time>
      </trkpt>
      <trkpt lat="42.53929" lon="1.58715">
        <ele>1330</ele>
        <time>2015-03-21T08:53:26.000Z</time>
      </trkpt>
      <trkpt lat="42.53929" lon="1.58715">
        <ele>1330</ele>
        <time>2015-03-21T08:53:29.000Z</time>
      </trkpt>
      <trkpt lat="42.53929" lon="1.58715">
        <ele>1330</ele>
        <time>2015-03-21T08:53:30.000Z</time>
      </trkpt>
      <trkpt lat="42.53929" lon="1.58715">
        <ele>1330</ele>
        <time>2015-03-21T08:53:31.000Z</time>
      </trkpt>
      <trkpt lat="42.53929" lon="1.58715">
        <ele>1330</ele>
        <time>2015-03-21T08:53:32.000Z</time>
      </trkpt>
      <trkpt lat="42.53929" lon="1.58715">
        <ele>1330</ele>
        <time>2015-03-21T08:53:33.000Z</time>
      </trkpt>
      <trkpt lat="42.53929" lon="1.58715">
        <ele>1330</ele>
        <time>2015-03-21T08:53:38.000Z</time>
      </trkpt>
      <trkpt lat="42.53929" lon="1.58715">
        <ele>1330</ele>
        <time>2015-03-21T08:53:52.000Z</time>
      </trkpt>
      <trkpt lat="42.5393" lon="1.58713">
        <ele>1331</ele>
        <time>2015-03-21T08:53:59.000Z</time>
      </trkpt>
      <trkpt lat="42.53932" lon="1.58713">
        <ele>1331</ele>
        <time>2015-03-21T08:54:07.000Z</time>
      </trkpt>
      <trkpt lat="42.53932" lon="1.58713">
        <ele>1331</ele>
        <time>2015-03-21T08:54:12.000Z</time>
      </trkpt>
      <trkpt lat="42.53932" lon="1.58713">
        <ele>1331</ele>
        <time>2015-03-21T08:54:15.000Z</time>
      </trkpt>
      <trkpt lat="42.53933" lon="1.58714">
        <ele>1331</ele>
        <time>2015-03-21T08:54:16.000Z</time>
      </trkpt>
      <trkpt lat="42.53933" lon="1.58714">
        <ele>1331</ele>
        <time>2015-03-21T08:54:17.000Z</time>
      </trkpt>
      <trkpt lat="42.53933" lon="1.58715">
        <ele>1331</ele>
        <time>2015-03-21T08:54:18.000Z</time>
      </trkpt>
      <trkpt lat="42.53933" lon="1.58715">
        <ele>1331</ele>
        <time>2015-03-21T08:54:19.000Z</time>
      </trkpt>
      <trkpt lat="42.53933" lon="1.58715">
        <ele>1331</ele>
        <time>2015-03-21T08:54:20.000Z</time>
      </trkpt>
      <trkpt lat="42.53933" lon="1.58715">
        <ele>1331</ele>
        <time>2015-03-21T08:54:21.000Z</time>
      </trkpt>
      <trkpt lat="42.53933" lon="1.58715">
        <ele>1331</ele>
        <time>2015-03-21T08:54:22.000Z</time>
      </trkpt>
      <trkpt lat="42.53933" lon="1.58715">
        <ele>1331</ele>
        <time>2015-03-21T08:54:23.000Z</time>
      </trkpt>
      <trkpt lat="42.53933" lon="1.58715">
        <ele>1331</ele>
        <time>2015-03-21T08:54:24.000Z</time>
      </trkpt>
      <trkpt lat="42.53933" lon="1.58715">
        <ele>1331</ele>
        <time>2015-03-21T08:54:25.000Z</time>
      </trkpt>
      <trkpt lat="42.53933" lon="1.58715">
        <ele>1331</ele>
        <time>2015-03-21T08:54:26.000Z</time>
      </trkpt>
      <trkpt lat="42.53933" lon="1.58715">
        <ele>1331</ele>
        <time>2015-03-21T08:54:27.000Z</time>
      </trkpt>
      <trkpt lat="42.53933" lon="1.58716">
        <ele>1331</ele>
        <time>2015-03-21T08:54:28.000Z</time>
      </trkpt>
      <trkpt lat="42.53933" lon="1.58716">
        <ele>1331</ele>
        <time>2015-03-21T08:54:29.000Z</time>
      </trkpt>
      <trkpt lat="42.53933" lon="1.58716">
        <ele>1331</ele>
        <time>2015-03-21T08:54:31.000Z</time>
      </trkpt>
      <trkpt lat="42.53933" lon="1.58716">
        <ele>1331</ele>
        <time>2015-03-21T08:54:32.000Z</time>
      </trkpt>
      <trkpt lat="42.53933" lon="1.58716">
        <ele>1331</ele>
        <time>2015-03-21T08:54:33.000Z</time>
      </trkpt>
      <trkpt lat="42.53933" lon="1.58714">
        <ele>1331</ele>
        <time>2015-03-21T08:54:34.000Z</time>
      </trkpt>
      <trkpt lat="42.53934" lon="1.58711">
        <ele>1332</ele>
        <time>2015-03-21T08:54:38.000Z</time>
      </trkpt>
      <trkpt lat="42.53931" lon="1.58711">
        <ele>1331</ele>
        <time>2015-03-21T08:54:44.000Z</time>
      </trkpt>
      <trkpt lat="42.5393" lon="1.58711">
        <ele>1331</ele>
        <time>2015-03-21T08:54:45.000Z</time>
      </trkpt>
      <trkpt lat="42.5393" lon="1.58711">
        <ele>1331</ele>
        <time>2015-03-21T08:54:46.000Z</time>
      </trkpt>
      <trkpt lat="42.53929" lon="1.58712">
        <ele>1331</ele>
        <time>2015-03-21T08:54:47.000Z</time>
      </trkpt>
      <trkpt lat="42.53928" lon="1.58711">
        <ele>1331</ele>
        <time>2015-03-21T08:54:48.000Z</time>
      </trkpt>
      <trkpt lat="42.53924" lon="1.58711">
        <ele>1330</ele>
        <time>2015-03-21T08:54:53.000Z</time>
      </trkpt>
      <trkpt lat="42.53923" lon="1.58712">
        <ele>1330</ele>
        <time>2015-03-21T08:54:54.000Z</time>
      </trkpt>
      <trkpt lat="42.53923" lon="1.58713">
        <ele>1330</ele>
        <time>2015-03-21T08:54:55.000Z</time>
      </trkpt>
      <trkpt lat="42.53924" lon="1.58714">
        <ele>1330</ele>
        <time>2015-03-21T08:54:56.000Z</time>
      </trkpt>
      <trkpt lat="42.53924" lon="1.58716">
        <ele>1330</ele>
        <time>2015-03-21T08:54:57.000Z</time>
      </trkpt>
      <trkpt lat="42.53925" lon="1.58717">
        <ele>1329</ele>
        <time>2015-03-21T08:54:58.000Z</time>
      </trkpt>
      <trkpt lat="42.53925" lon="1.58719">
        <ele>1329</ele>
        <time>2015-03-21T08:55:01.000Z</time>
      </trkpt>
      <trkpt lat="42.53925" lon="1.58717">
        <ele>1330</ele>
        <time>2015-03-21T08:55:15.000Z</time>
      </trkpt>
      <trkpt lat="42.53923" lon="1.58713">
        <ele>1330</ele>
        <time>2015-03-21T08:55:21.000Z</time>
      </trkpt>
      <trkpt lat="42.53921" lon="1.5871">
        <ele>1330</ele>
        <time>2015-03-21T08:55:23.000Z</time>
      </trkpt>
      <trkpt lat="42.53918" lon="1.58708">
        <ele>1330</ele>
        <time>2015-03-21T08:55:26.000Z</time>
      </trkpt>
      <trkpt lat="42.53917" lon="1.58707">
        <ele>1330</ele>
        <time>2015-03-21T08:55:27.000Z</time>
      </trkpt>
      <trkpt lat="42.53908" lon="1.58702">
        <ele>1314</ele>
        <time>2015-03-21T08:55:34.000Z</time>
      </trkpt>
      <trkpt lat="42.53899" lon="1.58696">
        <ele>1314</ele>
        <time>2015-03-21T08:55:42.000Z</time>
      </trkpt>
      <trkpt lat="42.53895" lon="1.58694">
        <ele>1313</ele>
        <time>2015-03-21T08:55:48.000Z</time>
      </trkpt>
      <trkpt lat="42.53895" lon="1.58694">
        <ele>1313</ele>
        <time>2015-03-21T08:55:59.000Z</time>
      </trkpt>
      <trkpt lat="42.53895" lon="1.58694">
        <ele>1313</ele>
        <time>2015-03-21T08:56:14.000Z</time>
      </trkpt>
      <trkpt lat="42.53895" lon="1.58694">
        <ele>1313</ele>
        <time>2015-03-21T08:56:26.000Z</time>
      </trkpt>
      <trkpt lat="42.53894" lon="1.58694">
        <ele>1313</ele>
        <time>2015-03-21T08:56:40.000Z</time>
      </trkpt>
      <trkpt lat="42.53894" lon="1.58694">
        <ele>1313</ele>
        <time>2015-03-21T08:56:53.000Z</time>
      </trkpt>
      <trkpt lat="42.53894" lon="1.58694">
        <ele>1313</ele>
        <time>2015-03-21T08:57:06.000Z</time>
      </trkpt>
      <trkpt lat="42.53895" lon="1.58694">
        <ele>1313</ele>
        <time>2015-03-21T08:57:14.000Z</time>
      </trkpt>
      <trkpt lat="42.53897" lon="1.58689">
        <ele>1314</ele>
        <time>2015-03-21T08:57:20.000Z</time>
      </trkpt>
      <trkpt lat="42.53898" lon="1.58691">
        <ele>1314</ele>
        <time>2015-03-21T08:57:25.000Z</time>
      </trkpt>
      <trkpt lat="42.53901" lon="1.5869">
        <ele>1315</ele>
        <time>2015-03-21T08:57:33.000Z</time>
      </trkpt>
      <trkpt lat="42.53903" lon="1.58692">
        <ele>1315</ele>
        <time>2015-03-21T08:57:40.000Z</time>
      </trkpt>
      <trkpt lat="42.53903" lon="1.58692">
        <ele>1315</ele>
        <time>2015-03-21T08:57:48.000Z</time>
      </trkpt>
      <trkpt lat="42.53904" lon="1.58693">
        <ele>1315</ele>
        <time>2015-03-21T08:57:55.000Z</time>
      </trkpt>
      <trkpt lat="42.53904" lon="1.58693">
        <ele>1315</ele>
        <time>2015-03-21T08:58:04.000Z</time>
      </trkpt>
      <trkpt lat="42.53903" lon="1.58693">
        <ele>1315</ele>
        <time>2015-03-21T08:58:14.000Z</time>
      </trkpt>
      <trkpt lat="42.53904" lon="1.58695">
        <ele>1314</ele>
        <time>2015-03-21T08:58:25.000Z</time>
      </trkpt>
      <trkpt lat="42.53902" lon="1.58696">
        <ele>1314</ele>
        <time>2015-03-21T08:58:31.000Z</time>
      </trkpt>
      <trkpt lat="42.53903" lon="1.58696">
        <ele>1314</ele>
        <time>2015-03-21T08:58:44.000Z</time>
      </trkpt>
      <trkpt lat="42.53909" lon="1.58704">
        <ele>1314</ele>
        <time>2015-03-21T08:58:52.000Z</time>
      </trkpt>
      <trkpt lat="42.53917" lon="1.58708">
        <ele>1314</ele>
        <time>2015-03-21T08:58:59.000Z</time>
      </trkpt>
      <trkpt lat="42.53917" lon="1.58707">
        <ele>1330</ele>
        <time>2015-03-21T08:59:00.000Z</time>
      </trkpt>
      <trkpt lat="42.53922" lon="1.58704">
        <ele>1331</ele>
        <time>2015-03-21T08:59:05.000Z</time>
      </trkpt>
      <trkpt lat="42.53926" lon="1.58699">
        <ele>1332</ele>
        <time>2015-03-21T08:59:11.000Z</time>
      </trkpt>
      <trkpt lat="42.53926" lon="1.58697">
        <ele>1332</ele>
        <time>2015-03-21T08:59:16.000Z</time>
      </trkpt>
      <trkpt lat="42.53926" lon="1.58697">
        <ele>1332</ele>
        <time>2015-03-21T08:59:17.000Z</time>
      </trkpt>
      <trkpt lat="42.53925" lon="1.58697">
        <ele>1332</ele>
        <time>2015-03-21T08:59:18.000Z</time>
      </trkpt>
      <trkpt lat="42.53924" lon="1.58697">
        <ele>1331</ele>
        <time>2015-03-21T08:59:19.000Z</time>
      </trkpt>
      <trkpt lat="42.53924" lon="1.58697">
        <ele>1331</ele>
        <time>2015-03-21T08:59:20.000Z</time>
      </trkpt>
      <trkpt lat="42.53921" lon="1.58697">
        <ele>1331</ele>
        <time>2015-03-21T08:59:22.000Z</time>
      </trkpt>
      <trkpt lat="42.5392" lon="1.58697">
        <ele>1331</ele>
        <time>2015-03-21T08:59:24.000Z</time>
      </trkpt>
      <trkpt lat="42.53918" lon="1.58696">
        <ele>1331</ele>
        <time>2015-03-21T08:59:26.000Z</time>
      </trkpt>
      <trkpt lat="42.53917" lon="1.58696">
        <ele>1331</ele>
        <time>2015-03-21T08:59:27.000Z</time>
      </trkpt>
      <trkpt lat="42.53916" lon="1.58695">
        <ele>1315</ele>
        <time>2015-03-21T08:59:28.000Z</time>
      </trkpt>
      <trkpt lat="42.53916" lon="1.58694">
        <ele>1316</ele>
        <time>2015-03-21T08:59:29.000Z</time>
      </trkpt>
      <trkpt lat="42.53915" lon="1.58693">
        <ele>1316</ele>
        <time>2015-03-21T08:59:30.000Z</time>
      </trkpt>
      <trkpt lat="42.53914" lon="1.58687">
        <ele>1317</ele>
        <time>2015-03-21T08:59:35.000Z</time>
      </trkpt>
      <trkpt lat="42.53911" lon="1.58685">
        <ele>1317</ele>
        <time>2015-03-21T08:59:39.000Z</time>
      </trkpt>
      <trkpt lat="42.5391" lon="1.58685">
        <ele>1317</ele>
        <time>2015-03-21T08:59:40.000Z</time>
      </trkpt>
      <trkpt lat="42.53909" lon="1.58684">
        <ele>1317</ele>
        <time>2015-03-21T08:59:41.000Z</time>
      </trkpt>
      <trkpt lat="42.53909" lon="1.58683">
        <ele>1317</ele>
        <time>2015-03-21T08:59:42.000Z</time>
      </trkpt>
      <trkpt lat="42.53908" lon="1.58682">
        <ele>1318</ele>
        <time>2015-03-21T08:59:43.000Z</time>
      </trkpt>
      <trkpt lat="42.53907" lon="1.58679">
        <ele>1318</ele>
        <time>2015-03-21T08:59:46.000Z</time>
      </trkpt>
      <trkpt lat="42.53907" lon="1.58678">
        <ele>1319</ele>
        <time>2015-03-21T08:59:47.000Z</time>
      </trkpt>
      <trkpt lat="42.53907" lon="1.58677">
        <ele>1319</ele>
        <time>2015-03-21T08:59:48.000Z</time>
      </trkpt>
      <trkpt lat="42.53907" lon="1.58676">
        <ele>1319</ele>
        <time>2015-03-21T08:59:49.000Z</time>
      </trkpt>
      <trkpt lat="42.53907" lon="1.58675">
        <ele>1319</ele>
        <time>2015-03-21T08:59:50.000Z</time>
      </trkpt>
      <trkpt lat="42.53907" lon="1.58674">
        <ele>1319</ele>
        <time>2015-03-21T08:59:51.000Z</time>
      </trkpt>
      <trkpt lat="42.53907" lon="1.58673">
        <ele>1320</ele>
        <time>2015-03-21T08:59:53.000Z</time>
      </trkpt>
      <trkpt lat="42.53907" lon="1.58671">
        <ele>1320</ele>
        <time>2015-03-21T08:59:56.000Z</time>
      </trkpt>
      <trkpt lat="42.53907" lon="1.5867">
        <ele>1320</ele>
        <time>2015-03-21T08:59:57.000Z</time>
      </trkpt>
      <trkpt lat="42.53907" lon="1.58669">
        <ele>1321</ele>
        <time>2015-03-21T08:59:58.000Z</time>
      </trkpt>
      <trkpt lat="42.53907" lon="1.58668">
        <ele>1321</ele>
        <time>2015-03-21T08:59:59.000Z</time>
      </trkpt>
      <trkpt lat="42.53907" lon="1.58666">
        <ele>1321</ele>
        <time>2015-03-21T09:00:00.000Z</time>
      </trkpt>
      <trkpt lat="42.53907" lon="1.58664">
        <ele>1321</ele>
        <time>2015-03-21T09:00:02.000Z</time>
      </trkpt>
      <trkpt lat="42.53906" lon="1.58662">
        <ele>1320</ele>
        <time>2015-03-21T09:00:04.000Z</time>
      </trkpt>
      <trkpt lat="42.53905" lon="1.5866">
        <ele>1319</ele>
        <time>2015-03-21T09:00:06.000Z</time>
      </trkpt>
      <trkpt lat="42.53904" lon="1.58659">
        <ele>1319</ele>
        <time>2015-03-21T09:00:07.000Z</time>
      </trkpt>
      <trkpt lat="42.53903" lon="1.58658">
        <ele>1319</ele>
        <time>2015-03-21T09:00:08.000Z</time>
      </trkpt>
      <trkpt lat="42.53903" lon="1.58658">
        <ele>1318</ele>
        <time>2015-03-21T09:00:09.000Z</time>
      </trkpt>
      <trkpt lat="42.53902" lon="1.58657">
        <ele>1318</ele>
        <time>2015-03-21T09:00:10.000Z</time>
      </trkpt>
      <trkpt lat="42.53899" lon="1.58654">
        <ele>1317</ele>
        <time>2015-03-21T09:00:16.000Z</time>
      </trkpt>
      <trkpt lat="42.53899" lon="1.58654">
        <ele>1317</ele>
        <time>2015-03-21T09:00:17.000Z</time>
      </trkpt>
      <trkpt lat="42.53898" lon="1.58654">
        <ele>1317</ele>
        <time>2015-03-21T09:00:18.000Z</time>
      </trkpt>
      <trkpt lat="42.53898" lon="1.58653">
        <ele>1317</ele>
        <time>2015-03-21T09:00:19.000Z</time>
      </trkpt>
      <trkpt lat="42.53898" lon="1.58653">
        <ele>1317</ele>
        <time>2015-03-21T09:00:24.000Z</time>
      </trkpt>
      <trkpt lat="42.53896" lon="1.58651">
        <ele>1316</ele>
        <time>2015-03-21T09:00:34.000Z</time>
      </trkpt>
      <trkpt lat="42.53896" lon="1.58647">
        <ele>1315</ele>
        <time>2015-03-21T09:00:40.000Z</time>
      </trkpt>
      <trkpt lat="42.53895" lon="1.58641">
        <ele>1315</ele>
        <time>2015-03-21T09:00:45.000Z</time>
      </trkpt>
      <trkpt lat="42.53895" lon="1.5864">
        <ele>1314</ele>
        <time>2015-03-21T09:00:46.000Z</time>
      </trkpt>
      <trkpt lat="42.53895" lon="1.58639">
        <ele>1314</ele>
        <time>2015-03-21T09:00:47.000Z</time>
      </trkpt>
      <trkpt lat="42.53895" lon="1.58638">
        <ele>1314</ele>
        <time>2015-03-21T09:00:48.000Z</time>
      </trkpt>
      <trkpt lat="42.53895" lon="1.58637">
        <ele>1314</ele>
        <time>2015-03-21T09:00:49.000Z</time>
      </trkpt>
      <trkpt lat="42.53893" lon="1.58631">
        <ele>1314</ele>
        <time>2015-03-21T09:00:55.000Z</time>
      </trkpt>
      <trkpt lat="42.53893" lon="1.58629">
        <ele>1314</ele>
        <time>2015-03-21T09:00:57.000Z</time>
      </trkpt>
      <trkpt lat="42.53893" lon="1.58628">
        <ele>1313</ele>
        <time>2015-03-21T09:00:58.000Z</time>
      </trkpt>
      <trkpt lat="42.53892" lon="1.58627">
        <ele>1313</ele>
        <time>2015-03-21T09:00:59.000Z</time>
      </trkpt>
      <trkpt lat="42.53892" lon="1.58626">
        <ele>1313</ele>
        <time>2015-03-21T09:01:00.000Z</time>
      </trkpt>
      <trkpt lat="42.53892" lon="1.58625">
        <ele>1313</ele>
        <time>2015-03-21T09:01:01.000Z</time>
      </trkpt>
      <trkpt lat="42.53892" lon="1.58625">
        <ele>1313</ele>
        <time>2015-03-21T09:01:02.000Z</time>
      </trkpt>
      <trkpt lat="42.53892" lon="1.58624">
        <ele>1313</ele>
        <time>2015-03-21T09:01:09.000Z</time>
      </trkpt>
      <trkpt lat="42.53892" lon="1.58623">
        <ele>1313</ele>
        <time>2015-03-21T09:01:10.000Z</time>
      </trkpt>
      <trkpt lat="42.53892" lon="1.58623">
        <ele>1313</ele>
        <time>2015-03-21T09:01:11.000Z</time>
      </trkpt>
      <trkpt lat="42.53892" lon="1.58622">
        <ele>1313</ele>
        <time>2015-03-21T09:01:12.000Z</time>
      </trkpt>
      <trkpt lat="42.53892" lon="1.58621">
        <ele>1313</ele>
        <time>2015-03-21T09:01:13.000Z</time>
      </trkpt>
      <trkpt lat="42.53892" lon="1.58621">
        <ele>1313</ele>
        <time>2015-03-21T09:01:14.000Z</time>
      </trkpt>
      <trkpt lat="42.53891" lon="1.5862">
        <ele>1313</ele>
        <time>2015-03-21T09:01:19.000Z</time>
      </trkpt>
      <trkpt lat="42.5389" lon="1.5862">
        <ele>1313</ele>
        <time>2015-03-21T09:01:20.000Z</time>
      </trkpt>
      <trkpt lat="42.53889" lon="1.58619">
        <ele>1313</ele>
        <time>2015-03-21T09:01:21.000Z</time>
      </trkpt>
      <trkpt lat="42.53888" lon="1.58618">
        <ele>1313</ele>
        <time>2015-03-21T09:01:22.000Z</time>
      </trkpt>
      <trkpt lat="42.53888" lon="1.58618">
        <ele>1313</ele>
        <time>2015-03-21T09:01:23.000Z</time>
      </trkpt>
      <trkpt lat="42.53889" lon="1.58615">
        <ele>1313</ele>
        <time>2015-03-21T09:01:26.000Z</time>
      </trkpt>
      <trkpt lat="42.53889" lon="1.58614">
        <ele>1313</ele>
        <time>2015-03-21T09:01:27.000Z</time>
      </trkpt>
      <trkpt lat="42.53889" lon="1.58613">
        <ele>1313</ele>
        <time>2015-03-21T09:01:28.000Z</time>
      </trkpt>
      <trkpt lat="42.53889" lon="1.58611">
        <ele>1313</ele>
        <time>2015-03-21T09:01:29.000Z</time>
      </trkpt>
      <trkpt lat="42.53888" lon="1.58609">
        <ele>1313</ele>
        <time>2015-03-21T09:01:30.000Z</time>
      </trkpt>
      <trkpt lat="42.53888" lon="1.58605">
        <ele>1313</ele>
        <time>2015-03-21T09:01:34.000Z</time>
      </trkpt>
      <trkpt lat="42.53886" lon="1.58604">
        <ele>1312</ele>
        <time>2015-03-21T09:01:40.000Z</time>
      </trkpt>
      <trkpt lat="42.53886" lon="1.58604">
        <ele>1312</ele>
        <time>2015-03-21T09:01:41.000Z</time>
      </trkpt>
      <trkpt lat="42.53886" lon="1.58604">
        <ele>1312</ele>
        <time>2015-03-21T09:01:42.000Z</time>
      </trkpt>
      <trkpt lat="42.53886" lon="1.58605">
        <ele>1312</ele>
        <time>2015-03-21T09:01:43.000Z</time>
      </trkpt>
      <trkpt lat="42.53887" lon="1.58607">
        <ele>1312</ele>
        <time>2015-03-21T09:01:44.000Z</time>
      </trkpt>
      <trkpt lat="42.53888" lon="1.58614">
        <ele>1312</ele>
        <time>2015-03-21T09:01:50.000Z</time>
      </trkpt>
      <trkpt lat="42.53888" lon="1.58619">
        <ele>1313</ele>
        <time>2015-03-21T09:01:57.000Z</time>
      </trkpt>
      <trkpt lat="42.53887" lon="1.58621">
        <ele>1312</ele>
        <time>2015-03-21T09:01:58.000Z</time>
      </trkpt>
      <trkpt lat="42.53887" lon="1.58622">
        <ele>1312</ele>
        <time>2015-03-21T09:01:59.000Z</time>
      </trkpt>
      <trkpt lat="42.53886" lon="1.58623">
        <ele>1312</ele>
        <time>2015-03-21T09:02:00.000Z</time>
      </trkpt>
      <trkpt lat="42.53882" lon="1.5863">
        <ele>1312</ele>
        <time>2015-03-21T09:02:06.000Z</time>
      </trkpt>
      <trkpt lat="42.53877" lon="1.58641">
        <ele>1311</ele>
        <time>2015-03-21T09:02:14.000Z</time>
      </trkpt>
      <trkpt lat="42.53873" lon="1.58648">
        <ele>1311</ele>
        <time>2015-03-21T09:02:21.000Z</time>
      </trkpt>
      <trkpt lat="42.53867" lon="1.58658">
        <ele>1310</ele>
        <time>2015-03-21T09:02:29.000Z</time>
      </trkpt>
      <trkpt lat="42.53861" lon="1.58671">
        <ele>1308</ele>
        <time>2015-03-21T09:02:38.000Z</time>
      </trkpt>
      <trkpt lat="42.53859" lon="1.5868">
        <ele>1307</ele>
        <time>2015-03-21T09:02:46.000Z</time>
      </trkpt>
      <trkpt lat="42.53859" lon="1.58682">
        <ele>1307</ele>
        <time>2015-03-21T09:02:47.000Z</time>
      </trkpt>
      <trkpt lat="42.53859" lon="1.58683">
        <ele>1307</ele>
        <time>2015-03-21T09:02:48.000Z</time>
      </trkpt>
      <trkpt lat="42.53859" lon="1.58683">
        <ele>1307</ele>
        <time>2015-03-21T09:02:49.000Z</time>
      </trkpt>
      <trkpt lat="42.53856" lon="1.58692">
        <ele>1307</ele>
        <time>2015-03-21T09:02:57.000Z</time>
      </trkpt>
      <trkpt lat="42.53856" lon="1.58692">
        <ele>1307</ele>
        <time>2015-03-21T09:02:58.000Z</time>
      </trkpt>
      <trkpt lat="42.53856" lon="1.58693">
        <ele>1307</ele>
        <time>2015-03-21T09:02:59.000Z</time>
      </trkpt>
      <trkpt lat="42.53855" lon="1.58693">
        <ele>1307</ele>
        <time>2015-03-21T09:03:00.000Z</time>
      </trkpt>
      <trkpt lat="42.53855" lon="1.58694">
        <ele>1307</ele>
        <time>2015-03-21T09:03:01.000Z</time>
      </trkpt>
      <trkpt lat="42.53854" lon="1.58697">
        <ele>1307</ele>
        <time>2015-03-21T09:03:05.000Z</time>
      </trkpt>
      <trkpt lat="42.53849" lon="1.58703">
        <ele>1307</ele>
        <time>2015-03-21T09:03:12.000Z</time>
      </trkpt>
      <trkpt lat="42.53849" lon="1.58703">
        <ele>1307</ele>
        <time>2015-03-21T09:03:13.000Z</time>
      </trkpt>
      <trkpt lat="42.53848" lon="1.58704">
        <ele>1307</ele>
        <time>2015-03-21T09:03:14.000Z</time>
      </trkpt>
      <trkpt lat="42.53847" lon="1.58704">
        <ele>1307</ele>
        <time>2015-03-21T09:03:15.000Z</time>
      </trkpt>
      <trkpt lat="42.53847" lon="1.58704">
        <ele>1307</ele>
        <time>2015-03-21T09:03:16.000Z</time>
      </trkpt>
      <trkpt lat="42.53845" lon="1.58707">
        <ele>1307</ele>
        <time>2015-03-21T09:03:20.000Z</time>
      </trkpt>
      <trkpt lat="42.53844" lon="1.58711">
        <ele>1306</ele>
        <time>2015-03-21T09:03:26.000Z</time>
      </trkpt>
      <trkpt lat="42.53843" lon="1.58711">
        <ele>1306</ele>
        <time>2015-03-21T09:03:27.000Z</time>
      </trkpt>
      <trkpt lat="42.53842" lon="1.58712">
        <ele>1306</ele>
        <time>2015-03-21T09:03:28.000Z</time>
      </trkpt>
      <trkpt lat="42.53842" lon="1.58712">
        <ele>1306</ele>
        <time>2015-03-21T09:03:29.000Z</time>
      </trkpt>
      <trkpt lat="42.53842" lon="1.58713">
        <ele>1306</ele>
        <time>2015-03-21T09:03:30.000Z</time>
      </trkpt>
      <trkpt lat="42.53842" lon="1.58719">
        <ele>1306</ele>
        <time>2015-03-21T09:03:35.000Z</time>
      </trkpt>
      <trkpt lat="42.53843" lon="1.58731">
        <ele>1305</ele>
        <time>2015-03-21T09:03:43.000Z</time>
      </trkpt>
      <trkpt lat="42.53845" lon="1.58734">
        <ele>1305</ele>
        <time>2015-03-21T09:03:47.000Z</time>
      </trkpt>
      <trkpt lat="42.53845" lon="1.58735">
        <ele>1305</ele>
        <time>2015-03-21T09:03:48.000Z</time>
      </trkpt>
      <trkpt lat="42.53845" lon="1.58736">
        <ele>1305</ele>
        <time>2015-03-21T09:03:49.000Z</time>
      </trkpt>
      <trkpt lat="42.53845" lon="1.58736">
        <ele>1305</ele>
        <time>2015-03-21T09:03:50.000Z</time>
      </trkpt>
      <trkpt lat="42.53845" lon="1.58736">
        <ele>1305</ele>
        <time>2015-03-21T09:03:51.000Z</time>
      </trkpt>
      <trkpt lat="42.53845" lon="1.58736">
        <ele>1305</ele>
        <time>2015-03-21T09:03:52.000Z</time>
      </trkpt>
      <trkpt lat="42.53842" lon="1.58738">
        <ele>1304</ele>
        <time>2015-03-21T09:03:56.000Z</time>
      </trkpt>
      <trkpt lat="42.53838" lon="1.58738">
        <ele>1303</ele>
        <time>2015-03-21T09:04:03.000Z</time>
      </trkpt>
      <trkpt lat="42.53836" lon="1.58734">
        <ele>1304</ele>
        <time>2015-03-21T09:04:10.000Z</time>
      </trkpt>
      <trkpt lat="42.53835" lon="1.58731">
        <ele>1304</ele>
        <time>2015-03-21T09:04:12.000Z</time>
      </trkpt>
      <trkpt lat="42.53834" lon="1.5873">
        <ele>1305</ele>
        <time>2015-03-21T09:04:13.000Z</time>
      </trkpt>
      <trkpt lat="42.53834" lon="1.58729">
        <ele>1305</ele>
        <time>2015-03-21T09:04:14.000Z</time>
      </trkpt>
      <trkpt lat="42.53833" lon="1.58727">
        <ele>1300</ele>
        <time>2015-03-21T09:04:15.000Z</time>
      </trkpt>
      <trkpt lat="42.53833" lon="1.58726">
        <ele>1300</ele>
        <time>2015-03-21T09:04:16.000Z</time>
      </trkpt>
      <trkpt lat="42.53832" lon="1.58725">
        <ele>1300</ele>
        <time>2015-03-21T09:04:17.000Z</time>
      </trkpt>
      <trkpt lat="42.53831" lon="1.58715">
        <ele>1300</ele>
        <time>2015-03-21T09:04:24.000Z</time>
      </trkpt>
      <trkpt lat="42.5383" lon="1.58704">
        <ele>1300</ele>
        <time>2015-03-21T09:04:31.000Z</time>
      </trkpt>
      <trkpt lat="42.5383" lon="1.58696">
        <ele>1300</ele>
        <time>2015-03-21T09:04:36.000Z</time>
      </trkpt>
      <trkpt lat="42.53831" lon="1.58687">
        <ele>1300</ele>
        <time>2015-03-21T09:04:43.000Z</time>
      </trkpt>
      <trkpt lat="42.5383" lon="1.58681">
        <ele>1300</ele>
        <time>2015-03-21T09:04:47.000Z</time>
      </trkpt>
      <trkpt lat="42.5383" lon="1.5868">
        <ele>1300</ele>
        <time>2015-03-21T09:04:48.000Z</time>
      </trkpt>
      <trkpt lat="42.5383" lon="1.58679">
        <ele>1300</ele>
        <time>2015-03-21T09:04:49.000Z</time>
      </trkpt>
      <trkpt lat="42.5383" lon="1.58678">
        <ele>1300</ele>
        <time>2015-03-21T09:04:50.000Z</time>
      </trkpt>
      <trkpt lat="42.53829" lon="1.58674">
        <ele>1299</ele>
        <time>2015-03-21T09:04:56.000Z</time>
      </trkpt>
      <trkpt lat="42.53828" lon="1.58673">
        <ele>1299</ele>
        <time>2015-03-21T09:05:03.000Z</time>
      </trkpt>
      <trkpt lat="42.53828" lon="1.58672">
        <ele>1299</ele>
        <time>2015-03-21T09:05:04.000Z</time>
      </trkpt>
      <trkpt lat="42.53828" lon="1.5867">
        <ele>1299</ele>
        <time>2015-03-21T09:05:05.000Z</time>
      </trkpt>
      <trkpt lat="42.53827" lon="1.58669">
        <ele>1299</ele>
        <time>2015-03-21T09:05:06.000Z</time>
      </trkpt>
      <trkpt lat="42.53827" lon="1.58667">
        <ele>1299</ele>
        <time>2015-03-21T09:05:07.000Z</time>
      </trkpt>
      <trkpt lat="42.53826" lon="1.58666">
        <ele>1298</ele>
        <time>2015-03-21T09:05:08.000Z</time>
      </trkpt>
      <trkpt lat="42.53826" lon="1.58665">
        <ele>1298</ele>
        <time>2015-03-21T09:05:09.000Z</time>
      </trkpt>
      <trkpt lat="42.53826" lon="1.58664">
        <ele>1298</ele>
        <time>2015-03-21T09:05:10.000Z</time>
      </trkpt>
      <trkpt lat="42.53822" lon="1.58655">
        <ele>1298</ele>
        <time>2015-03-21T09:05:17.000Z</time>
      </trkpt>
      <trkpt lat="42.53822" lon="1.58649">
        <ele>1298</ele>
        <time>2015-03-21T09:05:24.000Z</time>
      </trkpt>
      <trkpt lat="42.53821" lon="1.58649">
        <ele>1298</ele>
        <time>2015-03-21T09:05:29.000Z</time>
      </trkpt>
      <trkpt lat="42.53819" lon="1.58645">
        <ele>1297</ele>
        <time>2015-03-21T09:05:31.000Z</time>
      </trkpt>
      <trkpt lat="42.53817" lon="1.5864">
        <ele>1297</ele>
        <time>2015-03-21T09:05:36.000Z</time>
      </trkpt>
      <trkpt lat="42.53814" lon="1.58632">
        <ele>1297</ele>
        <time>2015-03-21T09:05:42.000Z</time>
      </trkpt>
      <trkpt lat="42.53812" lon="1.5863">
        <ele>1297</ele>
        <time>2015-03-21T09:05:48.000Z</time>
      </trkpt>
      <trkpt lat="42.53811" lon="1.58627">
        <ele>1297</ele>
        <time>2015-03-21T09:05:53.000Z</time>
      </trkpt>
      <trkpt lat="42.5381" lon="1.58627">
        <ele>1297</ele>
        <time>2015-03-21T09:05:55.000Z</time>
      </trkpt>
      <trkpt lat="42.5381" lon="1.58627">
        <ele>1297</ele>
        <time>2015-03-21T09:05:56.000Z</time>
      </trkpt>
      <trkpt lat="42.5381" lon="1.58626">
        <ele>1297</ele>
        <time>2015-03-21T09:05:57.000Z</time>
      </trkpt>
      <trkpt lat="42.53809" lon="1.58626">
        <ele>1297</ele>
        <time>2015-03-21T09:05:58.000Z</time>
      </trkpt>
      <trkpt lat="42.53808" lon="1.58626">
        <ele>1297</ele>
        <time>2015-03-21T09:05:59.000Z</time>
      </trkpt>
      <trkpt lat="42.53808" lon="1.58624">
        <ele>1297</ele>
        <time>2015-03-21T09:06:01.000Z</time>
      </trkpt>
      <trkpt lat="42.53804" lon="1.58618">
        <ele>1296</ele>
        <time>2015-03-21T09:06:07.000Z</time>
      </trkpt>
      <trkpt lat="42.53799" lon="1.58612">
        <ele>1296</ele>
        <time>2015-03-21T09:06:14.000Z</time>
      </trkpt>
      <trkpt lat="42.53797" lon="1.58609">
        <ele>1296</ele>
        <time>2015-03-21T09:06:17.000Z</time>
      </trkpt>
      <trkpt lat="42.53797" lon="1.58608">
        <ele>1296</ele>
        <time>2015-03-21T09:06:18.000Z</time>
      </trkpt>
      <trkpt lat="42.53797" lon="1.58607">
        <ele>1296</ele>
        <time>2015-03-21T09:06:19.000Z</time>
      </trkpt>
      <trkpt lat="42.53796" lon="1.58606">
        <ele>1296</ele>
        <time>2015-03-21T09:06:20.000Z</time>
      </trkpt>
      <trkpt lat="42.53796" lon="1.58605">
        <ele>1296</ele>
        <time>2015-03-21T09:06:21.000Z</time>
      </trkpt>
      <trkpt lat="42.53797" lon="1.58598">
        <ele>1296</ele>
        <time>2015-03-21T09:06:26.000Z</time>
      </trkpt>
      <trkpt lat="42.53798" lon="1.58593">
        <ele>1296</ele>
        <time>2015-03-21T09:06:29.000Z</time>
      </trkpt>
      <trkpt lat="42.53796" lon="1.58589">
        <ele>1296</ele>
        <time>2015-03-21T09:06:32.000Z</time>
      </trkpt>
      <trkpt lat="42.53792" lon="1.58576">
        <ele>1293</ele>
        <time>2015-03-21T09:06:40.000Z</time>
      </trkpt>
      <trkpt lat="42.53789" lon="1.58568">
        <ele>1293</ele>
        <time>2015-03-21T09:06:47.000Z</time>
      </trkpt>
      <trkpt lat="42.53788" lon="1.58563">
        <ele>1293</ele>
        <time>2015-03-21T09:06:51.000Z</time>
      </trkpt>
      <trkpt lat="42.53788" lon="1.58562">
        <ele>1293</ele>
        <time>2015-03-21T09:06:52.000Z</time>
      </trkpt>
      <trkpt lat="42.53788" lon="1.5856">
        <ele>1293</ele>
        <time>2015-03-21T09:06:53.000Z</time>
      </trkpt>
      <trkpt lat="42.53788" lon="1.58559">
        <ele>1293</ele>
        <time>2015-03-21T09:06:54.000Z</time>
      </trkpt>
      <trkpt lat="42.53784" lon="1.58551">
        <ele>1292</ele>
        <time>2015-03-21T09:07:00.000Z</time>
      </trkpt>
      <trkpt lat="42.53783" lon="1.58542">
        <ele>1292</ele>
        <time>2015-03-21T09:07:07.000Z</time>
      </trkpt>
      <trkpt lat="42.53779" lon="1.58535">
        <ele>1292</ele>
        <time>2015-03-21T09:07:14.000Z</time>
      </trkpt>
      <trkpt lat="42.53775" lon="1.58526">
        <ele>1291</ele>
        <time>2015-03-21T09:07:22.000Z</time>
      </trkpt>
      <trkpt lat="42.53773" lon="1.58524">
        <ele>1291</ele>
        <time>2015-03-21T09:07:24.000Z</time>
      </trkpt>
      <trkpt lat="42.53772" lon="1.58523">
        <ele>1290</ele>
        <time>2015-03-21T09:07:25.000Z</time>
      </trkpt>
      <trkpt lat="42.53771" lon="1.58522">
        <ele>1290</ele>
        <time>2015-03-21T09:07:26.000Z</time>
      </trkpt>
      <trkpt lat="42.5377" lon="1.58522">
        <ele>1290</ele>
        <time>2015-03-21T09:07:27.000Z</time>
      </trkpt>
      <trkpt lat="42.53769" lon="1.5852">
        <ele>1290</ele>
        <time>2015-03-21T09:07:28.000Z</time>
      </trkpt>
      <trkpt lat="42.53767" lon="1.58518">
        <ele>1290</ele>
        <time>2015-03-21T09:07:31.000Z</time>
      </trkpt>
      <trkpt lat="42.53764" lon="1.58507">
        <ele>1288</ele>
        <time>2015-03-21T09:07:38.000Z</time>
      </trkpt>
      <trkpt lat="42.53764" lon="1.58496">
        <ele>1286</ele>
        <time>2015-03-21T09:07:45.000Z</time>
      </trkpt>
      <trkpt lat="42.53767" lon="1.58487">
        <ele>1286</ele>
        <time>2015-03-21T09:07:51.000Z</time>
      </trkpt>
      <trkpt lat="42.53767" lon="1.58486">
        <ele>1287</ele>
        <time>2015-03-21T09:07:52.000Z</time>
      </trkpt>
      <trkpt lat="42.53768" lon="1.58478">
        <ele>1287</ele>
        <time>2015-03-21T09:07:57.000Z</time>
      </trkpt>
      <trkpt lat="42.53771" lon="1.5847">
        <ele>1287</ele>
        <time>2015-03-21T09:08:05.000Z</time>
      </trkpt>
      <trkpt lat="42.53771" lon="1.58469">
        <ele>1287</ele>
        <time>2015-03-21T09:08:06.000Z</time>
      </trkpt>
      <trkpt lat="42.53771" lon="1.58467">
        <ele>1287</ele>
        <time>2015-03-21T09:08:07.000Z</time>
      </trkpt>
      <trkpt lat="42.53772" lon="1.58466">
        <ele>1287</ele>
        <time>2015-03-21T09:08:08.000Z</time>
      </trkpt>
      <trkpt lat="42.53773" lon="1.58458">
        <ele>1287</ele>
        <time>2015-03-21T09:08:13.000Z</time>
      </trkpt>
      <trkpt lat="42.53777" lon="1.58448">
        <ele>1287</ele>
        <time>2015-03-21T09:08:21.000Z</time>
      </trkpt>
      <trkpt lat="42.53781" lon="1.58439">
        <ele>1286</ele>
        <time>2015-03-21T09:08:30.000Z</time>
      </trkpt>
      <trkpt lat="42.53782" lon="1.58436">
        <ele>1286</ele>
        <time>2015-03-21T09:08:32.000Z</time>
      </trkpt>
      <trkpt lat="42.53784" lon="1.5843">
        <ele>1286</ele>
        <time>2015-03-21T09:08:37.000Z</time>
      </trkpt>
      <trkpt lat="42.53784" lon="1.58428">
        <ele>1286</ele>
        <time>2015-03-21T09:08:39.000Z</time>
      </trkpt>
      <trkpt lat="42.53785" lon="1.58426">
        <ele>1286</ele>
        <time>2015-03-21T09:08:40.000Z</time>
      </trkpt>
      <trkpt lat="42.53785" lon="1.58425">
        <ele>1286</ele>
        <time>2015-03-21T09:08:41.000Z</time>
      </trkpt>
      <trkpt lat="42.53785" lon="1.58424">
        <ele>1286</ele>
        <time>2015-03-21T09:08:42.000Z</time>
      </trkpt>
      <trkpt lat="42.53785" lon="1.58422">
        <ele>1286</ele>
        <time>2015-03-21T09:08:43.000Z</time>
      </trkpt>
      <trkpt lat="42.53786" lon="1.5842">
        <ele>1286</ele>
        <time>2015-03-21T09:08:45.000Z</time>
      </trkpt>
      <trkpt lat="42.53789" lon="1.58412">
        <ele>1285</ele>
        <time>2015-03-21T09:08:53.000Z</time>
      </trkpt>
      <trkpt lat="42.53789" lon="1.58405">
        <ele>1285</ele>
        <time>2015-03-21T09:08:59.000Z</time>
      </trkpt>
      <trkpt lat="42.53789" lon="1.58395">
        <ele>1285</ele>
        <time>2015-03-21T09:09:06.000Z</time>
      </trkpt>
      <trkpt lat="42.53789" lon="1.58387">
        <ele>1285</ele>
        <time>2015-03-21T09:09:13.000Z</time>
      </trkpt>
      <trkpt lat="42.53789" lon="1.58384">
        <ele>1285</ele>
        <time>2015-03-21T09:09:17.000Z</time>
      </trkpt>
      <trkpt lat="42.53789" lon="1.58373">
        <ele>1285</ele>
        <time>2015-03-21T09:09:25.000Z</time>
      </trkpt>
      <trkpt lat="42.53789" lon="1.58372">
        <ele>1285</ele>
        <time>2015-03-21T09:09:27.000Z</time>
      </trkpt>
      <trkpt lat="42.53789" lon="1.58371">
        <ele>1285</ele>
        <time>2015-03-21T09:09:28.000Z</time>
      </trkpt>
      <trkpt lat="42.53789" lon="1.5837">
        <ele>1285</ele>
        <time>2015-03-21T09:09:29.000Z</time>
      </trkpt>
      <trkpt lat="42.53789" lon="1.58368">
        <ele>1285</ele>
        <time>2015-03-21T09:09:30.000Z</time>
      </trkpt>
      <trkpt lat="42.53789" lon="1.58367">
        <ele>1285</ele>
        <time>2015-03-21T09:09:31.000Z</time>
      </trkpt>
      <trkpt lat="42.53788" lon="1.58366">
        <ele>1285</ele>
        <time>2015-03-21T09:09:32.000Z</time>
      </trkpt>
      <trkpt lat="42.53788" lon="1.58359">
        <ele>1284</ele>
        <time>2015-03-21T09:09:38.000Z</time>
      </trkpt>
      <trkpt lat="42.53787" lon="1.58352">
        <ele>1284</ele>
        <time>2015-03-21T09:09:43.000Z</time>
      </trkpt>
      <trkpt lat="42.53786" lon="1.58342">
        <ele>1284</ele>
        <time>2015-03-21T09:09:52.000Z</time>
      </trkpt>
      <trkpt lat="42.53785" lon="1.58335">
        <ele>1284</ele>
        <time>2015-03-21T09:09:59.000Z</time>
      </trkpt>
      <trkpt lat="42.53783" lon="1.58328">
        <ele>1286</ele>
        <time>2015-03-21T09:10:05.000Z</time>
      </trkpt>
      <trkpt lat="42.53783" lon="1.58326">
        <ele>1286</ele>
        <time>2015-03-21T09:10:06.000Z</time>
      </trkpt>
      <trkpt lat="42.53783" lon="1.58325">
        <ele>1286</ele>
        <time>2015-03-21T09:10:07.000Z</time>
      </trkpt>
      <trkpt lat="42.53782" lon="1.58324">
        <ele>1286</ele>
        <time>2015-03-21T09:10:08.000Z</time>
      </trkpt>
      <trkpt lat="42.53782" lon="1.58323">
        <ele>1286</ele>
        <time>2015-03-21T09:10:09.000Z</time>
      </trkpt>
      <trkpt lat="42.53779" lon="1.58318">
        <ele>1285</ele>
        <time>2015-03-21T09:10:14.000Z</time>
      </trkpt>
      <trkpt lat="42.53777" lon="1.58315">
        <ele>1285</ele>
        <time>2015-03-21T09:10:17.000Z</time>
      </trkpt>
      <trkpt lat="42.53773" lon="1.58311">
        <ele>1285</ele>
        <time>2015-03-21T09:10:22.000Z</time>
      </trkpt>
      <trkpt lat="42.53767" lon="1.58303">
        <ele>1285</ele>
        <time>2015-03-21T09:10:30.000Z</time>
      </trkpt>
      <trkpt lat="42.5376" lon="1.58298">
        <ele>1284</ele>
        <time>2015-03-21T09:10:38.000Z</time>
      </trkpt>
      <trkpt lat="42.53753" lon="1.58292">
        <ele>1284</ele>
        <time>2015-03-21T09:10:46.000Z</time>
      </trkpt>
      <trkpt lat="42.53747" lon="1.58287">
        <ele>1275</ele>
        <time>2015-03-21T09:10:54.000Z</time>
      </trkpt>
      <trkpt lat="42.53744" lon="1.58285">
        <ele>1275</ele>
        <time>2015-03-21T09:10:57.000Z</time>
      </trkpt>
      <trkpt lat="42.53743" lon="1.58284">
        <ele>1275</ele>
        <time>2015-03-21T09:10:58.000Z</time>
      </trkpt>
      <trkpt lat="42.53742" lon="1.58283">
        <ele>1275</ele>
        <time>2015-03-21T09:10:59.000Z</time>
      </trkpt>
      <trkpt lat="42.53741" lon="1.58282">
        <ele>1275</ele>
        <time>2015-03-21T09:11:00.000Z</time>
      </trkpt>
      <trkpt lat="42.5374" lon="1.58281">
        <ele>1275</ele>
        <time>2015-03-21T09:11:01.000Z</time>
      </trkpt>
      <trkpt lat="42.53735" lon="1.58276">
        <ele>1275</ele>
        <time>2015-03-21T09:11:07.000Z</time>
      </trkpt>
      <trkpt lat="42.53728" lon="1.5827">
        <ele>1275</ele>
        <time>2015-03-21T09:11:15.000Z</time>
      </trkpt>
      <trkpt lat="42.53723" lon="1.58267">
        <ele>1275</ele>
        <time>2015-03-21T09:11:20.000Z</time>
      </trkpt>
      <trkpt lat="42.53721" lon="1.58264">
        <ele>1275</ele>
        <time>2015-03-21T09:11:23.000Z</time>
      </trkpt>
      <trkpt lat="42.53715" lon="1.5826">
        <ele>1275</ele>
        <time>2015-03-21T09:11:30.000Z</time>
      </trkpt>
      <trkpt lat="42.53712" lon="1.58257">
        <ele>1274</ele>
        <time>2015-03-21T09:11:34.000Z</time>
      </trkpt>
      <trkpt lat="42.53709" lon="1.58256">
        <ele>1274</ele>
        <time>2015-03-21T09:11:37.000Z</time>
      </trkpt>
      <trkpt lat="42.53707" lon="1.58255">
        <ele>1274</ele>
        <time>2015-03-21T09:11:39.000Z</time>
      </trkpt>
      <trkpt lat="42.53706" lon="1.58255">
        <ele>1274</ele>
        <time>2015-03-21T09:11:40.000Z</time>
      </trkpt>
      <trkpt lat="42.53705" lon="1.58254">
        <ele>1274</ele>
        <time>2015-03-21T09:11:41.000Z</time>
      </trkpt>
      <trkpt lat="42.53705" lon="1.58253">
        <ele>1274</ele>
        <time>2015-03-21T09:11:42.000Z</time>
      </trkpt>
      <trkpt lat="42.53704" lon="1.58252">
        <ele>1274</ele>
        <time>2015-03-21T09:11:43.000Z</time>
      </trkpt>
      <trkpt lat="42.53703" lon="1.58252">
        <ele>1274</ele>
        <time>2015-03-21T09:11:44.000Z</time>
      </trkpt>
      <trkpt lat="42.53702" lon="1.5825">
        <ele>1274</ele>
        <time>2015-03-21T09:11:45.000Z</time>
      </trkpt>
      <trkpt lat="42.537" lon="1.58247">
        <ele>1277</ele>
        <time>2015-03-21T09:11:49.000Z</time>
      </trkpt>
      <trkpt lat="42.53694" lon="1.58242">
        <ele>1276</ele>
        <time>2015-03-21T09:11:56.000Z</time>
      </trkpt>
      <trkpt lat="42.53692" lon="1.58238">
        <ele>1276</ele>
        <time>2015-03-21T09:12:01.000Z</time>
      </trkpt>
      <trkpt lat="42.53691" lon="1.58237">
        <ele>1276</ele>
        <time>2015-03-21T09:12:02.000Z</time>
      </trkpt>
      <trkpt lat="42.5369" lon="1.58237">
        <ele>1276</ele>
        <time>2015-03-21T09:12:03.000Z</time>
      </trkpt>
      <trkpt lat="42.53687" lon="1.58233">
        <ele>1276</ele>
        <time>2015-03-21T09:12:09.000Z</time>
      </trkpt>
      <trkpt lat="42.53684" lon="1.58229">
        <ele>1276</ele>
        <time>2015-03-21T09:12:16.000Z</time>
      </trkpt>
      <trkpt lat="42.5368" lon="1.58223">
        <ele>1276</ele>
        <time>2015-03-21T09:12:21.000Z</time>
      </trkpt>
      <trkpt lat="42.5368" lon="1.58222">
        <ele>1276</ele>
        <time>2015-03-21T09:12:22.000Z</time>
      </trkpt>
      <trkpt lat="42.53676" lon="1.58218">
        <ele>1276</ele>
        <time>2015-03-21T09:12:26.000Z</time>
      </trkpt>
      <trkpt lat="42.53674" lon="1.58217">
        <ele>1276</ele>
        <time>2015-03-21T09:12:28.000Z</time>
      </trkpt>
      <trkpt lat="42.53673" lon="1.58215">
        <ele>1276</ele>
        <time>2015-03-21T09:12:30.000Z</time>
      </trkpt>
      <trkpt lat="42.53672" lon="1.58214">
        <ele>1276</ele>
        <time>2015-03-21T09:12:32.000Z</time>
      </trkpt>
      <trkpt lat="42.53671" lon="1.58212">
        <ele>1276</ele>
        <time>2015-03-21T09:12:34.000Z</time>
      </trkpt>
      <trkpt lat="42.53667" lon="1.5821">
        <ele>1276</ele>
        <time>2015-03-21T09:12:40.000Z</time>
      </trkpt>
      <trkpt lat="42.53666" lon="1.58209">
        <ele>1271</ele>
        <time>2015-03-21T09:12:41.000Z</time>
      </trkpt>
      <trkpt lat="42.53666" lon="1.58209">
        <ele>1271</ele>
        <time>2015-03-21T09:12:42.000Z</time>
      </trkpt>
      <trkpt lat="42.53665" lon="1.58209">
        <ele>1271</ele>
        <time>2015-03-21T09:12:43.000Z</time>
      </trkpt>
      <trkpt lat="42.53663" lon="1.58206">
        <ele>1271</ele>
        <time>2015-03-21T09:12:48.000Z</time>
      </trkpt>
      <trkpt lat="42.53659" lon="1.58201">
        <ele>1270</ele>
        <time>2015-03-21T09:12:54.000Z</time>
      </trkpt>
      <trkpt lat="42.53657" lon="1.58198">
        <ele>1270</ele>
        <time>2015-03-21T09:13:00.000Z</time>
      </trkpt>
      <trkpt lat="42.53657" lon="1.58196">
        <ele>1270</ele>
        <time>2015-03-21T09:13:01.000Z</time>
      </trkpt>
      <trkpt lat="42.53656" lon="1.58189">
        <ele>1270</ele>
        <time>2015-03-21T09:13:05.000Z</time>
      </trkpt>
      <trkpt lat="42.53656" lon="1.58189">
        <ele>1270</ele>
        <time>2015-03-21T09:13:06.000Z</time>
      </trkpt>
      <trkpt lat="42.53656" lon="1.58185">
        <ele>1270</ele>
        <time>2015-03-21T09:13:12.000Z</time>
      </trkpt>
      <trkpt lat="42.53652" lon="1.58174">
        <ele>1270</ele>
        <time>2015-03-21T09:13:19.000Z</time>
      </trkpt>
      <trkpt lat="42.53646" lon="1.58172">
        <ele>1270</ele>
        <time>2015-03-21T09:13:27.000Z</time>
      </trkpt>
      <trkpt lat="42.53641" lon="1.58168">
        <ele>1270</ele>
        <time>2015-03-21T09:13:34.000Z</time>
      </trkpt>
      <trkpt lat="42.53637" lon="1.58166">
        <ele>1270</ele>
        <time>2015-03-21T09:13:39.000Z</time>
      </trkpt>
      <trkpt lat="42.53637" lon="1.58165">
        <ele>1270</ele>
        <time>2015-03-21T09:13:40.000Z</time>
      </trkpt>
      <trkpt lat="42.53636" lon="1.58163">
        <ele>1270</ele>
        <time>2015-03-21T09:13:41.000Z</time>
      </trkpt>
      <trkpt lat="42.53635" lon="1.58163">
        <ele>1270</ele>
        <time>2015-03-21T09:13:42.000Z</time>
      </trkpt>
      <trkpt lat="42.53635" lon="1.58162">
        <ele>1270</ele>
        <time>2015-03-21T09:13:43.000Z</time>
      </trkpt>
      <trkpt lat="42.53634" lon="1.58159">
        <ele>1270</ele>
        <time>2015-03-21T09:13:46.000Z</time>
      </trkpt>
      <trkpt lat="42.53632" lon="1.58158">
        <ele>1270</ele>
        <time>2015-03-21T09:13:49.000Z</time>
      </trkpt>
      <trkpt lat="42.53623" lon="1.58153">
        <ele>1269</ele>
        <time>2015-03-21T09:13:57.000Z</time>
      </trkpt>
      <trkpt lat="42.53618" lon="1.58148">
        <ele>1269</ele>
        <time>2015-03-21T09:14:03.000Z</time>
      </trkpt>
      <trkpt lat="42.53618" lon="1.58147">
        <ele>1269</ele>
        <time>2015-03-21T09:14:04.000Z</time>
      </trkpt>
      <trkpt lat="42.53617" lon="1.58146">
        <ele>1269</ele>
        <time>2015-03-21T09:14:05.000Z</time>
      </trkpt>
      <trkpt lat="42.53617" lon="1.58145">
        <ele>1269</ele>
        <time>2015-03-21T09:14:06.000Z</time>
      </trkpt>
      <trkpt lat="42.53616" lon="1.58143">
        <ele>1269</ele>
        <time>2015-03-21T09:14:07.000Z</time>
      </trkpt>
      <trkpt lat="42.53614" lon="1.58139">
        <ele>1269</ele>
        <time>2015-03-21T09:14:10.000Z</time>
      </trkpt>
      <trkpt lat="42.53608" lon="1.58134">
        <ele>1269</ele>
        <time>2015-03-21T09:14:17.000Z</time>
      </trkpt>
      <trkpt lat="42.53605" lon="1.5813">
        <ele>1268</ele>
        <time>2015-03-21T09:14:20.000Z</time>
      </trkpt>
      <trkpt lat="42.53602" lon="1.58127">
        <ele>1268</ele>
        <time>2015-03-21T09:14:24.000Z</time>
      </trkpt>
      <trkpt lat="42.536" lon="1.58122">
        <ele>1268</ele>
        <time>2015-03-21T09:14:27.000Z</time>
      </trkpt>
      <trkpt lat="42.53598" lon="1.58116">
        <ele>1268</ele>
        <time>2015-03-21T09:14:32.000Z</time>
      </trkpt>
      <trkpt lat="42.53594" lon="1.58109">
        <ele>1267</ele>
        <time>2015-03-21T09:14:39.000Z</time>
      </trkpt>
      <trkpt lat="42.53589" lon="1.58104">
        <ele>1267</ele>
        <time>2015-03-21T09:14:45.000Z</time>
      </trkpt>
      <trkpt lat="42.53585" lon="1.58094">
        <ele>1265</ele>
        <time>2015-03-21T09:14:53.000Z</time>
      </trkpt>
      <trkpt lat="42.5358" lon="1.58087">
        <ele>1263</ele>
        <time>2015-03-21T09:15:00.000Z</time>
      </trkpt>
      <trkpt lat="42.53578" lon="1.58085">
        <ele>1263</ele>
        <time>2015-03-21T09:15:02.000Z</time>
      </trkpt>
      <trkpt lat="42.53577" lon="1.58083">
        <ele>1263</ele>
        <time>2015-03-21T09:15:03.000Z</time>
      </trkpt>
      <trkpt lat="42.53577" lon="1.58082">
        <ele>1262</ele>
        <time>2015-03-21T09:15:04.000Z</time>
      </trkpt>
      <trkpt lat="42.53576" lon="1.58081">
        <ele>1262</ele>
        <time>2015-03-21T09:15:05.000Z</time>
      </trkpt>
      <trkpt lat="42.53576" lon="1.5808">
        <ele>1262</ele>
        <time>2015-03-21T09:15:06.000Z</time>
      </trkpt>
      <trkpt lat="42.53575" lon="1.58079">
        <ele>1262</ele>
        <time>2015-03-21T09:15:07.000Z</time>
      </trkpt>
      <trkpt lat="42.53569" lon="1.5807">
        <ele>1262</ele>
        <time>2015-03-21T09:15:15.000Z</time>
      </trkpt>
      <trkpt lat="42.53563" lon="1.58064">
        <ele>1262</ele>
        <time>2015-03-21T09:15:23.000Z</time>
      </trkpt>
      <trkpt lat="42.53557" lon="1.58057">
        <ele>1261</ele>
        <time>2015-03-21T09:15:32.000Z</time>
      </trkpt>
      <trkpt lat="42.53555" lon="1.58053">
        <ele>1261</ele>
        <time>2015-03-21T09:15:35.000Z</time>
      </trkpt>
      <trkpt lat="42.53554" lon="1.58052">
        <ele>1261</ele>
        <time>2015-03-21T09:15:36.000Z</time>
      </trkpt>
      <trkpt lat="42.53553" lon="1.58051">
        <ele>1261</ele>
        <time>2015-03-21T09:15:37.000Z</time>
      </trkpt>
      <trkpt lat="42.53553" lon="1.58051">
        <ele>1261</ele>
        <time>2015-03-21T09:15:38.000Z</time>
      </trkpt>
      <trkpt lat="42.53552" lon="1.5805">
        <ele>1261</ele>
        <time>2015-03-21T09:15:39.000Z</time>
      </trkpt>
      <trkpt lat="42.53552" lon="1.58049">
        <ele>1261</ele>
        <time>2015-03-21T09:15:40.000Z</time>
      </trkpt>
      <trkpt lat="42.53548" lon="1.58041">
        <ele>1261</ele>
        <time>2015-03-21T09:15:47.000Z</time>
      </trkpt>
      <trkpt lat="42.53541" lon="1.58032">
        <ele>1261</ele>
        <time>2015-03-21T09:15:56.000Z</time>
      </trkpt>
      <trkpt lat="42.53535" lon="1.58022">
        <ele>1261</ele>
        <time>2015-03-21T09:16:06.000Z</time>
      </trkpt>
      <trkpt lat="42.53535" lon="1.58021">
        <ele>1261</ele>
        <time>2015-03-21T09:16:07.000Z</time>
      </trkpt>
      <trkpt lat="42.53534" lon="1.58019">
        <ele>1261</ele>
        <time>2015-03-21T09:16:08.000Z</time>
      </trkpt>
      <trkpt lat="42.53533" lon="1.58016">
        <ele>1260</ele>
        <time>2015-03-21T09:16:09.000Z</time>
      </trkpt>
      <trkpt lat="42.53533" lon="1.58015">
        <ele>1260</ele>
        <time>2015-03-21T09:16:10.000Z</time>
      </trkpt>
      <trkpt lat="42.53529" lon="1.58007">
        <ele>1260</ele>
        <time>2015-03-21T09:16:17.000Z</time>
      </trkpt>
      <trkpt lat="42.53524" lon="1.57999">
        <ele>1260</ele>
        <time>2015-03-21T09:16:25.000Z</time>
      </trkpt>
      <trkpt lat="42.53522" lon="1.57996">
        <ele>1260</ele>
        <time>2015-03-21T09:16:32.000Z</time>
      </trkpt>
      <trkpt lat="42.53522" lon="1.5799">
        <ele>1260</ele>
        <time>2015-03-21T09:16:40.000Z</time>
      </trkpt>
      <trkpt lat="42.53516" lon="1.57977">
        <ele>1260</ele>
        <time>2015-03-21T09:16:48.000Z</time>
      </trkpt>
      <trkpt lat="42.53515" lon="1.57976">
        <ele>1260</ele>
        <time>2015-03-21T09:16:49.000Z</time>
      </trkpt>
      <trkpt lat="42.53515" lon="1.57975">
        <ele>1260</ele>
        <time>2015-03-21T09:16:50.000Z</time>
      </trkpt>
      <trkpt lat="42.53514" lon="1.57974">
        <ele>1260</ele>
        <time>2015-03-21T09:16:51.000Z</time>
      </trkpt>
      <trkpt lat="42.53511" lon="1.57967">
        <ele>1260</ele>
        <time>2015-03-21T09:16:58.000Z</time>
      </trkpt>
      <trkpt lat="42.53506" lon="1.57958">
        <ele>1259</ele>
        <time>2015-03-21T09:17:06.000Z</time>
      </trkpt>
      <trkpt lat="42.53499" lon="1.57945">
        <ele>1253</ele>
        <time>2015-03-21T09:17:15.000Z</time>
      </trkpt>
      <trkpt lat="42.53498" lon="1.57943">
        <ele>1253</ele>
        <time>2015-03-21T09:17:17.000Z</time>
      </trkpt>
      <trkpt lat="42.53497" lon="1.57941">
        <ele>1253</ele>
        <time>2015-03-21T09:17:18.000Z</time>
      </trkpt>
      <trkpt lat="42.53496" lon="1.5794">
        <ele>1253</ele>
        <time>2015-03-21T09:17:19.000Z</time>
      </trkpt>
      <trkpt lat="42.53495" lon="1.57939">
        <ele>1253</ele>
        <time>2015-03-21T09:17:20.000Z</time>
      </trkpt>
      <trkpt lat="42.53494" lon="1.57938">
        <ele>1253</ele>
        <time>2015-03-21T09:17:21.000Z</time>
      </trkpt>
      <trkpt lat="42.53494" lon="1.57937">
        <ele>1253</ele>
        <time>2015-03-21T09:17:22.000Z</time>
      </trkpt>
      <trkpt lat="42.53486" lon="1.57936">
        <ele>1253</ele>
        <time>2015-03-21T09:17:30.000Z</time>
      </trkpt>
      <trkpt lat="42.53483" lon="1.57934">
        <ele>1253</ele>
        <time>2015-03-21T09:17:33.000Z</time>
      </trkpt>
      <trkpt lat="42.53481" lon="1.57933">
        <ele>1253</ele>
        <time>2015-03-21T09:17:37.000Z</time>
      </trkpt>
      <trkpt lat="42.53477" lon="1.57932">
        <ele>1253</ele>
        <time>2015-03-21T09:17:42.000Z</time>
      </trkpt>
      <trkpt lat="42.53477" lon="1.57932">
        <ele>1253</ele>
        <time>2015-03-21T09:17:43.000Z</time>
      </trkpt>
      <trkpt lat="42.53476" lon="1.57932">
        <ele>1253</ele>
        <time>2015-03-21T09:17:44.000Z</time>
      </trkpt>
      <trkpt lat="42.53476" lon="1.57932">
        <ele>1253</ele>
        <time>2015-03-21T09:17:45.000Z</time>
      </trkpt>
      <trkpt lat="42.53475" lon="1.5793">
        <ele>1253</ele>
        <time>2015-03-21T09:17:46.000Z</time>
      </trkpt>
      <trkpt lat="42.53474" lon="1.57929">
        <ele>1253</ele>
        <time>2015-03-21T09:17:47.000Z</time>
      </trkpt>
      <trkpt lat="42.53473" lon="1.57927">
        <ele>1253</ele>
        <time>2015-03-21T09:17:49.000Z</time>
      </trkpt>
      <trkpt lat="42.53472" lon="1.57925">
        <ele>1253</ele>
        <time>2015-03-21T09:17:55.000Z</time>
      </trkpt>
      <trkpt lat="42.53471" lon="1.57921">
        <ele>1253</ele>
        <time>2015-03-21T09:17:58.000Z</time>
      </trkpt>
      <trkpt lat="42.5347" lon="1.57915">
        <ele>1250</ele>
        <time>2015-03-21T09:18:03.000Z</time>
      </trkpt>
      <trkpt lat="42.5347" lon="1.57906">
        <ele>1250</ele>
        <time>2015-03-21T09:18:09.000Z</time>
      </trkpt>
      <trkpt lat="42.53467" lon="1.57895">
        <ele>1250</ele>
        <time>2015-03-21T09:18:16.000Z</time>
      </trkpt>
      <trkpt lat="42.53465" lon="1.57882">
        <ele>1249</ele>
        <time>2015-03-21T09:18:25.000Z</time>
      </trkpt>
      <trkpt lat="42.53464" lon="1.57872">
        <ele>1249</ele>
        <time>2015-03-21T09:18:33.000Z</time>
      </trkpt>
      <trkpt lat="42.53463" lon="1.57866">
        <ele>1249</ele>
        <time>2015-03-21T09:18:37.000Z</time>
      </trkpt>
      <trkpt lat="42.53463" lon="1.57864">
        <ele>1249</ele>
        <time>2015-03-21T09:18:38.000Z</time>
      </trkpt>
      <trkpt lat="42.53463" lon="1.57863">
        <ele>1249</ele>
        <time>2015-03-21T09:18:39.000Z</time>
      </trkpt>
      <trkpt lat="42.53463" lon="1.57862">
        <ele>1249</ele>
        <time>2015-03-21T09:18:40.000Z</time>
      </trkpt>
      <trkpt lat="42.53463" lon="1.57861">
        <ele>1249</ele>
        <time>2015-03-21T09:18:41.000Z</time>
      </trkpt>
      <trkpt lat="42.53463" lon="1.57858">
        <ele>1249</ele>
        <time>2015-03-21T09:18:43.000Z</time>
      </trkpt>
      <trkpt lat="42.53462" lon="1.57848">
        <ele>1249</ele>
        <time>2015-03-21T09:18:50.000Z</time>
      </trkpt>
      <trkpt lat="42.53459" lon="1.57836">
        <ele>1248</ele>
        <time>2015-03-21T09:18:57.000Z</time>
      </trkpt>
      <trkpt lat="42.53456" lon="1.57823">
        <ele>1247</ele>
        <time>2015-03-21T09:19:06.000Z</time>
      </trkpt>
      <trkpt lat="42.53456" lon="1.57819">
        <ele>1247</ele>
        <time>2015-03-21T09:19:09.000Z</time>
      </trkpt>
      <trkpt lat="42.53455" lon="1.57818">
        <ele>1247</ele>
        <time>2015-03-21T09:19:10.000Z</time>
      </trkpt>
      <trkpt lat="42.53455" lon="1.57817">
        <ele>1247</ele>
        <time>2015-03-21T09:19:11.000Z</time>
      </trkpt>
      <trkpt lat="42.53455" lon="1.57816">
        <ele>1247</ele>
        <time>2015-03-21T09:19:12.000Z</time>
      </trkpt>
      <trkpt lat="42.53455" lon="1.57814">
        <ele>1247</ele>
        <time>2015-03-21T09:19:13.000Z</time>
      </trkpt>
      <trkpt lat="42.53455" lon="1.57812">
        <ele>1247</ele>
        <time>2015-03-21T09:19:15.000Z</time>
      </trkpt>
      <trkpt lat="42.53454" lon="1.57802">
        <ele>1247</ele>
        <time>2015-03-21T09:19:23.000Z</time>
      </trkpt>
      <trkpt lat="42.5345" lon="1.57785">
        <ele>1247</ele>
        <time>2015-03-21T09:19:34.000Z</time>
      </trkpt>
      <trkpt lat="42.53447" lon="1.57773">
        <ele>1246</ele>
        <time>2015-03-21T09:19:42.000Z</time>
      </trkpt>
      <trkpt lat="42.53445" lon="1.57759">
        <ele>1246</ele>
        <time>2015-03-21T09:19:51.000Z</time>
      </trkpt>
      <trkpt lat="42.53441" lon="1.57748">
        <ele>1245</ele>
        <time>2015-03-21T09:19:59.000Z</time>
      </trkpt>
      <trkpt lat="42.53439" lon="1.57733">
        <ele>1245</ele>
        <time>2015-03-21T09:20:11.000Z</time>
      </trkpt>
      <trkpt lat="42.5344" lon="1.57721">
        <ele>1246</ele>
        <time>2015-03-21T09:20:17.000Z</time>
      </trkpt>
      <trkpt lat="42.53441" lon="1.57719">
        <ele>1246</ele>
        <time>2015-03-21T09:20:18.000Z</time>
      </trkpt>
      <trkpt lat="42.53441" lon="1.57718">
        <ele>1246</ele>
        <time>2015-03-21T09:20:19.000Z</time>
      </trkpt>
      <trkpt lat="42.53442" lon="1.57717">
        <ele>1246</ele>
        <time>2015-03-21T09:20:20.000Z</time>
      </trkpt>
      <trkpt lat="42.53443" lon="1.57716">
        <ele>1246</ele>
        <time>2015-03-21T09:20:21.000Z</time>
      </trkpt>
      <trkpt lat="42.53443" lon="1.57715">
        <ele>1246</ele>
        <time>2015-03-21T09:20:22.000Z</time>
      </trkpt>
      <trkpt lat="42.53445" lon="1.57707">
        <ele>1246</ele>
        <time>2015-03-21T09:20:30.000Z</time>
      </trkpt>
      <trkpt lat="42.5345" lon="1.57698">
        <ele>1246</ele>
        <time>2015-03-21T09:20:37.000Z</time>
      </trkpt>
      <trkpt lat="42.53444" lon="1.57694">
        <ele>1246</ele>
        <time>2015-03-21T09:20:45.000Z</time>
      </trkpt>
      <trkpt lat="42.53445" lon="1.5769">
        <ele>1246</ele>
        <time>2015-03-21T09:20:47.000Z</time>
      </trkpt>
      <trkpt lat="42.53446" lon="1.57682">
        <ele>1246</ele>
        <time>2015-03-21T09:20:52.000Z</time>
      </trkpt>
      <trkpt lat="42.53439" lon="1.5768">
        <ele>1245</ele>
        <time>2015-03-21T09:20:59.000Z</time>
      </trkpt>
      <trkpt lat="42.53437" lon="1.57677">
        <ele>1245</ele>
        <time>2015-03-21T09:21:04.000Z</time>
      </trkpt>
      <trkpt lat="42.53435" lon="1.5767">
        <ele>1244</ele>
        <time>2015-03-21T09:21:12.000Z</time>
      </trkpt>
      <trkpt lat="42.53431" lon="1.5766">
        <ele>1245</ele>
        <time>2015-03-21T09:21:20.000Z</time>
      </trkpt>
      <trkpt lat="42.53427" lon="1.57647">
        <ele>1246</ele>
        <time>2015-03-21T09:21:30.000Z</time>
      </trkpt>
      <trkpt lat="42.53423" lon="1.57637">
        <ele>1247</ele>
        <time>2015-03-21T09:21:39.000Z</time>
      </trkpt>
      <trkpt lat="42.53421" lon="1.57629">
        <ele>1247</ele>
        <time>2015-03-21T09:21:49.000Z</time>
      </trkpt>
      <trkpt lat="42.53421" lon="1.57618">
        <ele>1248</ele>
        <time>2015-03-21T09:21:58.000Z</time>
      </trkpt>
      <trkpt lat="42.53423" lon="1.57604">
        <ele>1247</ele>
        <time>2015-03-21T09:22:08.000Z</time>
      </trkpt>
      <trkpt lat="42.53423" lon="1.576">
        <ele>1247</ele>
        <time>2015-03-21T09:22:12.000Z</time>
      </trkpt>
      <trkpt lat="42.53423" lon="1.57599">
        <ele>1247</ele>
        <time>2015-03-21T09:22:13.000Z</time>
      </trkpt>
      <trkpt lat="42.53423" lon="1.57598">
        <ele>1247</ele>
        <time>2015-03-21T09:22:14.000Z</time>
      </trkpt>
      <trkpt lat="42.53422" lon="1.57596">
        <ele>1247</ele>
        <time>2015-03-21T09:22:15.000Z</time>
      </trkpt>
      <trkpt lat="42.53422" lon="1.57595">
        <ele>1247</ele>
        <time>2015-03-21T09:22:16.000Z</time>
      </trkpt>
      <trkpt lat="42.5341" lon="1.57586">
        <ele>1244</ele>
        <time>2015-03-21T09:22:25.000Z</time>
      </trkpt>
      <trkpt lat="42.53409" lon="1.57584">
        <ele>1244</ele>
        <time>2015-03-21T09:22:26.000Z</time>
      </trkpt>
      <trkpt lat="42.53406" lon="1.57574">
        <ele>1244</ele>
        <time>2015-03-21T09:22:34.000Z</time>
      </trkpt>
      <trkpt lat="42.53404" lon="1.57565">
        <ele>1244</ele>
        <time>2015-03-21T09:22:42.000Z</time>
      </trkpt>
      <trkpt lat="42.53402" lon="1.57556">
        <ele>1244</ele>
        <time>2015-03-21T09:22:49.000Z</time>
      </trkpt>
      <trkpt lat="42.534" lon="1.57542">
        <ele>1244</ele>
        <time>2015-03-21T09:22:58.000Z</time>
      </trkpt>
      <trkpt lat="42.53398" lon="1.57529">
        <ele>1244</ele>
        <time>2015-03-21T09:23:08.000Z</time>
      </trkpt>
      <trkpt lat="42.53396" lon="1.57519">
        <ele>1244</ele>
        <time>2015-03-21T09:23:15.000Z</time>
      </trkpt>
      <trkpt lat="42.53393" lon="1.57506">
        <ele>1244</ele>
        <time>2015-03-21T09:23:23.000Z</time>
      </trkpt>
      <trkpt lat="42.53391" lon="1.57493">
        <ele>1244</ele>
        <time>2015-03-21T09:23:32.000Z</time>
      </trkpt>
      <trkpt lat="42.53388" lon="1.57478">
        <ele>1244</ele>
        <time>2015-03-21T09:23:41.000Z</time>
      </trkpt>
      <trkpt lat="42.53388" lon="1.57471">
        <ele>1244</ele>
        <time>2015-03-21T09:23:47.000Z</time>
      </trkpt>
      <trkpt lat="42.53385" lon="1.57458">
        <ele>1244</ele>
        <time>2015-03-21T09:23:57.000Z</time>
      </trkpt>
      <trkpt lat="42.53382" lon="1.57442">
        <ele>1244</ele>
        <time>2015-03-21T09:24:07.000Z</time>
      </trkpt>
      <trkpt lat="42.5338" lon="1.57431">
        <ele>1243</ele>
        <time>2015-03-21T09:24:16.000Z</time>
      </trkpt>
      <trkpt lat="42.53377" lon="1.57419">
        <ele>1243</ele>
        <time>2015-03-21T09:24:25.000Z</time>
      </trkpt>
      <trkpt lat="42.53374" lon="1.57406">
        <ele>1244</ele>
        <time>2015-03-21T09:24:34.000Z</time>
      </trkpt>
      <trkpt lat="42.53373" lon="1.57399">
        <ele>1244</ele>
        <time>2015-03-21T09:24:41.000Z</time>
      </trkpt>
      <trkpt lat="42.53372" lon="1.57388">
        <ele>1244</ele>
        <time>2015-03-21T09:24:49.000Z</time>
      </trkpt>
      <trkpt lat="42.53367" lon="1.57381">
        <ele>1244</ele>
        <time>2015-03-21T09:24:56.000Z</time>
      </trkpt>
      <trkpt lat="42.5336" lon="1.57378">
        <ele>1243</ele>
        <time>2015-03-21T09:25:05.000Z</time>
      </trkpt>
      <trkpt lat="42.53353" lon="1.57376">
        <ele>1243</ele>
        <time>2015-03-21T09:25:13.000Z</time>
      </trkpt>
      <trkpt lat="42.5335" lon="1.57374">
        <ele>1243</ele>
        <time>2015-03-21T09:25:16.000Z</time>
      </trkpt>
      <trkpt lat="42.53347" lon="1.57369">
        <ele>1242</ele>
        <time>2015-03-21T09:25:20.000Z</time>
      </trkpt>
      <trkpt lat="42.53347" lon="1.57368">
        <ele>1242</ele>
        <time>2015-03-21T09:25:21.000Z</time>
      </trkpt>
      <trkpt lat="42.53346" lon="1.57361">
        <ele>1242</ele>
        <time>2015-03-21T09:25:28.000Z</time>
      </trkpt>
      <trkpt lat="42.53346" lon="1.57355">
        <ele>1242</ele>
        <time>2015-03-21T09:25:33.000Z</time>
      </trkpt>
      <trkpt lat="42.53347" lon="1.57352">
        <ele>1242</ele>
        <time>2015-03-21T09:25:36.000Z</time>
      </trkpt>
      <trkpt lat="42.53347" lon="1.57342">
        <ele>1241</ele>
        <time>2015-03-21T09:25:44.000Z</time>
      </trkpt>
      <trkpt lat="42.53345" lon="1.57331">
        <ele>1241</ele>
        <time>2015-03-21T09:25:52.000Z</time>
      </trkpt>
      <trkpt lat="42.53342" lon="1.57321">
        <ele>1242</ele>
        <time>2015-03-21T09:26:00.000Z</time>
      </trkpt>
      <trkpt lat="42.53341" lon="1.57317">
        <ele>1243</ele>
        <time>2015-03-21T09:26:03.000Z</time>
      </trkpt>
      <trkpt lat="42.53339" lon="1.57312">
        <ele>1244</ele>
        <time>2015-03-21T09:26:07.000Z</time>
      </trkpt>
      <trkpt lat="42.53339" lon="1.57311">
        <ele>1244</ele>
        <time>2015-03-21T09:26:08.000Z</time>
      </trkpt>
      <trkpt lat="42.53338" lon="1.5731">
        <ele>1244</ele>
        <time>2015-03-21T09:26:09.000Z</time>
      </trkpt>
      <trkpt lat="42.53338" lon="1.57309">
        <ele>1244</ele>
        <time>2015-03-21T09:26:10.000Z</time>
      </trkpt>
      <trkpt lat="42.53338" lon="1.57307">
        <ele>1244</ele>
        <time>2015-03-21T09:26:11.000Z</time>
      </trkpt>
      <trkpt lat="42.53336" lon="1.57304">
        <ele>1244</ele>
        <time>2015-03-21T09:26:14.000Z</time>
      </trkpt>
      <trkpt lat="42.53328" lon="1.57297">
        <ele>1238</ele>
        <time>2015-03-21T09:26:24.000Z</time>
      </trkpt>
      <trkpt lat="42.53321" lon="1.5729">
        <ele>1238</ele>
        <time>2015-03-21T09:26:33.000Z</time>
      </trkpt>
      <trkpt lat="42.53316" lon="1.57283">
        <ele>1238</ele>
        <time>2015-03-21T09:26:41.000Z</time>
      </trkpt>
      <trkpt lat="42.53313" lon="1.57281">
        <ele>1238</ele>
        <time>2015-03-21T09:26:46.000Z</time>
      </trkpt>
      <trkpt lat="42.53313" lon="1.5728">
        <ele>1238</ele>
        <time>2015-03-21T09:26:47.000Z</time>
      </trkpt>
      <trkpt lat="42.53312" lon="1.57278">
        <ele>1238</ele>
        <time>2015-03-21T09:26:48.000Z</time>
      </trkpt>
      <trkpt lat="42.53311" lon="1.57278">
        <ele>1238</ele>
        <time>2015-03-21T09:26:49.000Z</time>
      </trkpt>
      <trkpt lat="42.53311" lon="1.57277">
        <ele>1238</ele>
        <time>2015-03-21T09:26:50.000Z</time>
      </trkpt>
      <trkpt lat="42.53308" lon="1.57275">
        <ele>1238</ele>
        <time>2015-03-21T09:26:54.000Z</time>
      </trkpt>
      <trkpt lat="42.53306" lon="1.57272">
        <ele>1238</ele>
        <time>2015-03-21T09:27:01.000Z</time>
      </trkpt>
      <trkpt lat="42.53301" lon="1.57267">
        <ele>1237</ele>
        <time>2015-03-21T09:27:08.000Z</time>
      </trkpt>
      <trkpt lat="42.53294" lon="1.5726">
        <ele>1237</ele>
        <time>2015-03-21T09:27:16.000Z</time>
      </trkpt>
      <trkpt lat="42.53291" lon="1.57249">
        <ele>1238</ele>
        <time>2015-03-21T09:27:25.000Z</time>
      </trkpt>
      <trkpt lat="42.53288" lon="1.57241">
        <ele>1238</ele>
        <time>2015-03-21T09:27:33.000Z</time>
      </trkpt>
      <trkpt lat="42.53288" lon="1.5724">
        <ele>1238</ele>
        <time>2015-03-21T09:27:34.000Z</time>
      </trkpt>
      <trkpt lat="42.53285" lon="1.57231">
        <ele>1238</ele>
        <time>2015-03-21T09:27:42.000Z</time>
      </trkpt>
      <trkpt lat="42.53284" lon="1.5723">
        <ele>1238</ele>
        <time>2015-03-21T09:27:49.000Z</time>
      </trkpt>
      <trkpt lat="42.53284" lon="1.57229">
        <ele>1238</ele>
        <time>2015-03-21T09:27:58.000Z</time>
      </trkpt>
      <trkpt lat="42.53283" lon="1.57228">
        <ele>1238</ele>
        <time>2015-03-21T09:28:09.000Z</time>
      </trkpt>
      <trkpt lat="42.53283" lon="1.57228">
        <ele>1238</ele>
        <time>2015-03-21T09:28:10.000Z</time>
      </trkpt>
      <trkpt lat="42.53284" lon="1.57227">
        <ele>1238</ele>
        <time>2015-03-21T09:28:11.000Z</time>
      </trkpt>
      <trkpt lat="42.53284" lon="1.57226">
        <ele>1238</ele>
        <time>2015-03-21T09:28:12.000Z</time>
      </trkpt>
      <trkpt lat="42.53284" lon="1.57226">
        <ele>1238</ele>
        <time>2015-03-21T09:28:13.000Z</time>
      </trkpt>
      <trkpt lat="42.53284" lon="1.57226">
        <ele>1238</ele>
        <time>2015-03-21T09:28:14.000Z</time>
      </trkpt>
      <trkpt lat="42.53284" lon="1.57226">
        <ele>1238</ele>
        <time>2015-03-21T09:28:16.000Z</time>
      </trkpt>
      <trkpt lat="42.53284" lon="1.57225">
        <ele>1238</ele>
        <time>2015-03-21T09:28:26.000Z</time>
      </trkpt>
      <trkpt lat="42.53281" lon="1.57218">
        <ele>1238</ele>
        <time>2015-03-21T09:28:34.000Z</time>
      </trkpt>
      <trkpt lat="42.53279" lon="1.57214">
        <ele>1238</ele>
        <time>2015-03-21T09:28:40.000Z</time>
      </trkpt>
      <trkpt lat="42.53279" lon="1.57213">
        <ele>1238</ele>
        <time>2015-03-21T09:28:51.000Z</time>
      </trkpt>
      <trkpt lat="42.53276" lon="1.5721">
        <ele>1238</ele>
        <time>2015-03-21T09:28:58.000Z</time>
      </trkpt>
      <trkpt lat="42.53275" lon="1.57209">
        <ele>1238</ele>
        <time>2015-03-21T09:29:09.000Z</time>
      </trkpt>
      <trkpt lat="42.5327" lon="1.57197">
        <ele>1238</ele>
        <time>2015-03-21T09:29:17.000Z</time>
      </trkpt>
      <trkpt lat="42.53266" lon="1.57188">
        <ele>1238</ele>
        <time>2015-03-21T09:29:23.000Z</time>
      </trkpt>
      <trkpt lat="42.53261" lon="1.57178">
        <ele>1237</ele>
        <time>2015-03-21T09:29:30.000Z</time>
      </trkpt>
      <trkpt lat="42.53255" lon="1.57168">
        <ele>1236</ele>
        <time>2015-03-21T09:29:38.000Z</time>
      </trkpt>
      <trkpt lat="42.5325" lon="1.57158">
        <ele>1238</ele>
        <time>2015-03-21T09:29:45.000Z</time>
      </trkpt>
      <trkpt lat="42.5324" lon="1.57146">
        <ele>1235</ele>
        <time>2015-03-21T09:29:55.000Z</time>
      </trkpt>
      <trkpt lat="42.53231" lon="1.5714">
        <ele>1235</ele>
        <time>2015-03-21T09:30:02.000Z</time>
      </trkpt>
      <trkpt lat="42.53223" lon="1.57133">
        <ele>1235</ele>
        <time>2015-03-21T09:30:10.000Z</time>
      </trkpt>
      <trkpt lat="42.53214" lon="1.57127">
        <ele>1235</ele>
        <time>2015-03-21T09:30:18.000Z</time>
      </trkpt>
      <trkpt lat="42.53207" lon="1.57121">
        <ele>1235</ele>
        <time>2015-03-21T09:30:25.000Z</time>
      </trkpt>
      <trkpt lat="42.53199" lon="1.57117">
        <ele>1235</ele>
        <time>2015-03-21T09:30:32.000Z</time>
      </trkpt>
      <trkpt lat="42.5319" lon="1.57112">
        <ele>1234</ele>
        <time>2015-03-21T09:30:39.000Z</time>
      </trkpt>
      <trkpt lat="42.53189" lon="1.57111">
        <ele>1234</ele>
        <time>2015-03-21T09:30:40.000Z</time>
      </trkpt>
      <trkpt lat="42.53188" lon="1.57111">
        <ele>1234</ele>
        <time>2015-03-21T09:30:41.000Z</time>
      </trkpt>
      <trkpt lat="42.53186" lon="1.57111">
        <ele>1234</ele>
        <time>2015-03-21T09:30:42.000Z</time>
      </trkpt>
      <trkpt lat="42.53185" lon="1.57111">
        <ele>1234</ele>
        <time>2015-03-21T09:30:43.000Z</time>
      </trkpt>
      <trkpt lat="42.53179" lon="1.5711">
        <ele>1234</ele>
        <time>2015-03-21T09:30:47.000Z</time>
      </trkpt>
      <trkpt lat="42.53174" lon="1.57107">
        <ele>1234</ele>
        <time>2015-03-21T09:30:52.000Z</time>
      </trkpt>
      <trkpt lat="42.53164" lon="1.57103">
        <ele>1231</ele>
        <time>2015-03-21T09:31:00.000Z</time>
      </trkpt>
      <trkpt lat="42.53154" lon="1.57099">
        <ele>1230</ele>
        <time>2015-03-21T09:31:09.000Z</time>
      </trkpt>
      <trkpt lat="42.53153" lon="1.57099">
        <ele>1230</ele>
        <time>2015-03-21T09:31:10.000Z</time>
      </trkpt>
      <trkpt lat="42.53152" lon="1.57098">
        <ele>1230</ele>
        <time>2015-03-21T09:31:11.000Z</time>
      </trkpt>
      <trkpt lat="42.53151" lon="1.57097">
        <ele>1230</ele>
        <time>2015-03-21T09:31:12.000Z</time>
      </trkpt>
      <trkpt lat="42.53149" lon="1.57097">
        <ele>1230</ele>
        <time>2015-03-21T09:31:13.000Z</time>
      </trkpt>
      <trkpt lat="42.53146" lon="1.57094">
        <ele>1230</ele>
        <time>2015-03-21T09:31:17.000Z</time>
      </trkpt>
      <trkpt lat="42.53137" lon="1.57089">
        <ele>1229</ele>
        <time>2015-03-21T09:31:26.000Z</time>
      </trkpt>
      <trkpt lat="42.53132" lon="1.57085">
        <ele>1229</ele>
        <time>2015-03-21T09:31:33.000Z</time>
      </trkpt>
      <trkpt lat="42.53121" lon="1.5708">
        <ele>1236</ele>
        <time>2015-03-21T09:31:44.000Z</time>
      </trkpt>
      <trkpt lat="42.53114" lon="1.57077">
        <ele>1235</ele>
        <time>2015-03-21T09:31:51.000Z</time>
      </trkpt>
      <trkpt lat="42.53113" lon="1.57077">
        <ele>1235</ele>
        <time>2015-03-21T09:31:52.000Z</time>
      </trkpt>
      <trkpt lat="42.53112" lon="1.57076">
        <ele>1235</ele>
        <time>2015-03-21T09:31:53.000Z</time>
      </trkpt>
      <trkpt lat="42.53112" lon="1.57076">
        <ele>1235</ele>
        <time>2015-03-21T09:31:54.000Z</time>
      </trkpt>
      <trkpt lat="42.53111" lon="1.57075">
        <ele>1235</ele>
        <time>2015-03-21T09:31:55.000Z</time>
      </trkpt>
      <trkpt lat="42.53107" lon="1.57075">
        <ele>1235</ele>
        <time>2015-03-21T09:31:58.000Z</time>
      </trkpt>
      <trkpt lat="42.53099" lon="1.57073">
        <ele>1233</ele>
        <time>2015-03-21T09:32:07.000Z</time>
      </trkpt>
      <trkpt lat="42.53092" lon="1.57071">
        <ele>1232</ele>
        <time>2015-03-21T09:32:14.000Z</time>
      </trkpt>
      <trkpt lat="42.53084" lon="1.57069">
        <ele>1232</ele>
        <time>2015-03-21T09:32:23.000Z</time>
      </trkpt>
      <trkpt lat="42.53077" lon="1.57066">
        <ele>1228</ele>
        <time>2015-03-21T09:32:31.000Z</time>
      </trkpt>
      <trkpt lat="42.53066" lon="1.57067">
        <ele>1228</ele>
        <time>2015-03-21T09:32:40.000Z</time>
      </trkpt>
      <trkpt lat="42.53056" lon="1.57065">
        <ele>1228</ele>
        <time>2015-03-21T09:32:49.000Z</time>
      </trkpt>
      <trkpt lat="42.53055" lon="1.57065">
        <ele>1228</ele>
        <time>2015-03-21T09:32:50.000Z</time>
      </trkpt>
      <trkpt lat="42.53047" lon="1.57061">
        <ele>1228</ele>
        <time>2015-03-21T09:32:59.000Z</time>
      </trkpt>
      <trkpt lat="42.53046" lon="1.57061">
        <ele>1228</ele>
        <time>2015-03-21T09:33:01.000Z</time>
      </trkpt>
      <trkpt lat="42.53045" lon="1.57061">
        <ele>1228</ele>
        <time>2015-03-21T09:33:02.000Z</time>
      </trkpt>
      <trkpt lat="42.53044" lon="1.5706">
        <ele>1228</ele>
        <time>2015-03-21T09:33:03.000Z</time>
      </trkpt>
      <trkpt lat="42.53043" lon="1.5706">
        <ele>1228</ele>
        <time>2015-03-21T09:33:04.000Z</time>
      </trkpt>
      <trkpt lat="42.53042" lon="1.57059">
        <ele>1228</ele>
        <time>2015-03-21T09:33:05.000Z</time>
      </trkpt>
      <trkpt lat="42.5304" lon="1.57058">
        <ele>1228</ele>
        <time>2015-03-21T09:33:07.000Z</time>
      </trkpt>
      <trkpt lat="42.53032" lon="1.57049">
        <ele>1229</ele>
        <time>2015-03-21T09:33:17.000Z</time>
      </trkpt>
      <trkpt lat="42.53025" lon="1.57042">
        <ele>1229</ele>
        <time>2015-03-21T09:33:27.000Z</time>
      </trkpt>
      <trkpt lat="42.53016" lon="1.57039">
        <ele>1228</ele>
        <time>2015-03-21T09:33:36.000Z</time>
      </trkpt>
      <trkpt lat="42.53009" lon="1.57039">
        <ele>1228</ele>
        <time>2015-03-21T09:33:44.000Z</time>
      </trkpt>
      <trkpt lat="42.53001" lon="1.57056">
        <ele>1226</ele>
        <time>2015-03-21T09:34:15.000Z</time>
      </trkpt>
      <trkpt lat="42.53" lon="1.57061">
        <ele>1226</ele>
        <time>2015-03-21T09:34:18.000Z</time>
      </trkpt>
      <trkpt lat="42.5299" lon="1.57078">
        <ele>1224</ele>
        <time>2015-03-21T09:34:28.000Z</time>
      </trkpt>
      <trkpt lat="42.52976" lon="1.57098">
        <ele>1230</ele>
        <time>2015-03-21T09:34:38.000Z</time>
      </trkpt>
      <trkpt lat="42.52976" lon="1.57098">
        <ele>1230</ele>
        <time>2015-03-21T09:34:39.000Z</time>
      </trkpt>
      <trkpt lat="42.52976" lon="1.57099">
        <ele>1230</ele>
        <time>2015-03-21T09:34:40.000Z</time>
      </trkpt>
      <trkpt lat="42.52976" lon="1.57099">
        <ele>1230</ele>
        <time>2015-03-21T09:34:41.000Z</time>
      </trkpt>
      <trkpt lat="42.52976" lon="1.57099">
        <ele>1230</ele>
        <time>2015-03-21T09:34:42.000Z</time>
      </trkpt>
      <trkpt lat="42.52969" lon="1.57115">
        <ele>1233</ele>
        <time>2015-03-21T09:34:47.000Z</time>
      </trkpt>
      <trkpt lat="42.52964" lon="1.57124">
        <ele>1234</ele>
        <time>2015-03-21T09:34:53.000Z</time>
      </trkpt>
      <trkpt lat="42.52961" lon="1.57127">
        <ele>1235</ele>
        <time>2015-03-21T09:34:57.000Z</time>
      </trkpt>
      <trkpt lat="42.52961" lon="1.57128">
        <ele>1235</ele>
        <time>2015-03-21T09:34:58.000Z</time>
      </trkpt>
      <trkpt lat="42.5296" lon="1.57129">
        <ele>1235</ele>
        <time>2015-03-21T09:34:59.000Z</time>
      </trkpt>
      <trkpt lat="42.52959" lon="1.5713">
        <ele>1235</ele>
        <time>2015-03-21T09:35:00.000Z</time>
      </trkpt>
      <trkpt lat="42.52955" lon="1.57136">
        <ele>1236</ele>
        <time>2015-03-21T09:35:05.000Z</time>
      </trkpt>
      <trkpt lat="42.52951" lon="1.57143">
        <ele>1237</ele>
        <time>2015-03-21T09:35:11.000Z</time>
      </trkpt>
      <trkpt lat="42.52953" lon="1.57149">
        <ele>1237</ele>
        <time>2015-03-21T09:35:19.000Z</time>
      </trkpt>
      <trkpt lat="42.52954" lon="1.5715">
        <ele>1237</ele>
        <time>2015-03-21T09:35:20.000Z</time>
      </trkpt>
      <trkpt lat="42.52954" lon="1.57151">
        <ele>1237</ele>
        <time>2015-03-21T09:35:21.000Z</time>
      </trkpt>
      <trkpt lat="42.52955" lon="1.57152">
        <ele>1237</ele>
        <time>2015-03-21T09:35:22.000Z</time>
      </trkpt>
      <trkpt lat="42.52956" lon="1.57153">
        <ele>1237</ele>
        <time>2015-03-21T09:35:23.000Z</time>
      </trkpt>
      <trkpt lat="42.52958" lon="1.57156">
        <ele>1237</ele>
        <time>2015-03-21T09:35:25.000Z</time>
      </trkpt>
      <trkpt lat="42.52962" lon="1.57164">
        <ele>1236</ele>
        <time>2015-03-21T09:35:32.000Z</time>
      </trkpt>
      <trkpt lat="42.52967" lon="1.57169">
        <ele>1244</ele>
        <time>2015-03-21T09:35:40.000Z</time>
      </trkpt>
      <trkpt lat="42.52973" lon="1.57175">
        <ele>1243</ele>
        <time>2015-03-21T09:35:48.000Z</time>
      </trkpt>
      <trkpt lat="42.52978" lon="1.57181">
        <ele>1243</ele>
        <time>2015-03-21T09:35:55.000Z</time>
      </trkpt>
      <trkpt lat="42.52985" lon="1.57188">
        <ele>1242</ele>
        <time>2015-03-21T09:36:03.000Z</time>
      </trkpt>
      <trkpt lat="42.52986" lon="1.57189">
        <ele>1242</ele>
        <time>2015-03-21T09:36:04.000Z</time>
      </trkpt>
      <trkpt lat="42.52988" lon="1.57189">
        <ele>1242</ele>
        <time>2015-03-21T09:36:05.000Z</time>
      </trkpt>
      <trkpt lat="42.52989" lon="1.5719">
        <ele>1242</ele>
        <time>2015-03-21T09:36:06.000Z</time>
      </trkpt>
      <trkpt lat="42.5299" lon="1.57191">
        <ele>1242</ele>
        <time>2015-03-21T09:36:07.000Z</time>
      </trkpt>
      <trkpt lat="42.52993" lon="1.57194">
        <ele>1242</ele>
        <time>2015-03-21T09:36:11.000Z</time>
      </trkpt>
      <trkpt lat="42.52999" lon="1.57198">
        <ele>1243</ele>
        <time>2015-03-21T09:36:18.000Z</time>
      </trkpt>
      <trkpt lat="42.53004" lon="1.57202">
        <ele>1233</ele>
        <time>2015-03-21T09:36:24.000Z</time>
      </trkpt>
      <trkpt lat="42.53011" lon="1.57207">
        <ele>1234</ele>
        <time>2015-03-21T09:36:32.000Z</time>
      </trkpt>
      <trkpt lat="42.53021" lon="1.57214">
        <ele>1234</ele>
        <time>2015-03-21T09:36:40.000Z</time>
      </trkpt>
      <trkpt lat="42.53028" lon="1.57217">
        <ele>1234</ele>
        <time>2015-03-21T09:36:47.000Z</time>
      </trkpt>
      <trkpt lat="42.53035" lon="1.57224">
        <ele>1235</ele>
        <time>2015-03-21T09:36:56.000Z</time>
      </trkpt>
      <trkpt lat="42.53044" lon="1.57231">
        <ele>1235</ele>
        <time>2015-03-21T09:37:05.000Z</time>
      </trkpt>
      <trkpt lat="42.53052" lon="1.57234">
        <ele>1235</ele>
        <time>2015-03-21T09:37:12.000Z</time>
      </trkpt>
      <trkpt lat="42.53058" lon="1.57238">
        <ele>1235</ele>
        <time>2015-03-21T09:37:18.000Z</time>
      </trkpt>
      <trkpt lat="42.53061" lon="1.5724">
        <ele>1235</ele>
        <time>2015-03-21T09:37:20.000Z</time>
      </trkpt>
      <trkpt lat="42.53062" lon="1.57241">
        <ele>1235</ele>
        <time>2015-03-21T09:37:21.000Z</time>
      </trkpt>
      <trkpt lat="42.53062" lon="1.57241">
        <ele>1235</ele>
        <time>2015-03-21T09:37:22.000Z</time>
      </trkpt>
      <trkpt lat="42.53063" lon="1.57242">
        <ele>1235</ele>
        <time>2015-03-21T09:37:23.000Z</time>
      </trkpt>
      <trkpt lat="42.53064" lon="1.57243">
        <ele>1235</ele>
        <time>2015-03-21T09:37:24.000Z</time>
      </trkpt>
      <trkpt lat="42.53067" lon="1.57245">
        <ele>1235</ele>
        <time>2015-03-21T09:37:28.000Z</time>
      </trkpt>
      <trkpt lat="42.53072" lon="1.57247">
        <ele>1236</ele>
        <time>2015-03-21T09:37:33.000Z</time>
      </trkpt>
      <trkpt lat="42.53075" lon="1.57249">
        <ele>1236</ele>
        <time>2015-03-21T09:37:37.000Z</time>
      </trkpt>
      <trkpt lat="42.53083" lon="1.57255">
        <ele>1238</ele>
        <time>2015-03-21T09:37:45.000Z</time>
      </trkpt>
      <trkpt lat="42.5309" lon="1.5726">
        <ele>1238</ele>
        <time>2015-03-21T09:37:53.000Z</time>
      </trkpt>
      <trkpt lat="42.53097" lon="1.57263">
        <ele>1238</ele>
        <time>2015-03-21T09:38:00.000Z</time>
      </trkpt>
      <trkpt lat="42.53105" lon="1.57268">
        <ele>1239</ele>
        <time>2015-03-21T09:38:08.000Z</time>
      </trkpt>
      <trkpt lat="42.53111" lon="1.57273">
        <ele>1239</ele>
        <time>2015-03-21T09:38:15.000Z</time>
      </trkpt>
      <trkpt lat="42.53118" lon="1.5728">
        <ele>1239</ele>
        <time>2015-03-21T09:38:24.000Z</time>
      </trkpt>
      <trkpt lat="42.53125" lon="1.57286">
        <ele>1239</ele>
        <time>2015-03-21T09:38:32.000Z</time>
      </trkpt>
      <trkpt lat="42.53134" lon="1.57293">
        <ele>1239</ele>
        <time>2015-03-21T09:38:41.000Z</time>
      </trkpt>
      <trkpt lat="42.53138" lon="1.57297">
        <ele>1239</ele>
        <time>2015-03-21T09:38:47.000Z</time>
      </trkpt>
      <trkpt lat="42.53145" lon="1.57304">
        <ele>1239</ele>
        <time>2015-03-21T09:38:54.000Z</time>
      </trkpt>
      <trkpt lat="42.53152" lon="1.57307">
        <ele>1239</ele>
        <time>2015-03-21T09:39:01.000Z</time>
      </trkpt>
      <trkpt lat="42.53155" lon="1.57314">
        <ele>1240</ele>
        <time>2015-03-21T09:39:08.000Z</time>
      </trkpt>
      <trkpt lat="42.53161" lon="1.57317">
        <ele>1240</ele>
        <time>2015-03-21T09:39:15.000Z</time>
      </trkpt>
      <trkpt lat="42.53163" lon="1.57314">
        <ele>1240</ele>
        <time>2015-03-21T09:39:25.000Z</time>
      </trkpt>
      <trkpt lat="42.53165" lon="1.57317">
        <ele>1240</ele>
        <time>2015-03-21T09:39:33.000Z</time>
      </trkpt>
      <trkpt lat="42.53171" lon="1.57323">
        <ele>1238</ele>
        <time>2015-03-21T09:39:40.000Z</time>
      </trkpt>
      <trkpt lat="42.53172" lon="1.57328">
        <ele>1239</ele>
        <time>2015-03-21T09:39:43.000Z</time>
      </trkpt>
      <trkpt lat="42.53174" lon="1.57335">
        <ele>1240</ele>
        <time>2015-03-21T09:39:47.000Z</time>
      </trkpt>
      <trkpt lat="42.53181" lon="1.57343">
        <ele>1240</ele>
        <time>2015-03-21T09:39:55.000Z</time>
      </trkpt>
      <trkpt lat="42.53182" lon="1.57344">
        <ele>1240</ele>
        <time>2015-03-21T09:39:56.000Z</time>
      </trkpt>
      <trkpt lat="42.53186" lon="1.57348">
        <ele>1240</ele>
        <time>2015-03-21T09:40:00.000Z</time>
      </trkpt>
      <trkpt lat="42.53192" lon="1.57356">
        <ele>1240</ele>
        <time>2015-03-21T09:40:07.000Z</time>
      </trkpt>
      <trkpt lat="42.53197" lon="1.57363">
        <ele>1240</ele>
        <time>2015-03-21T09:40:14.000Z</time>
      </trkpt>
      <trkpt lat="42.53202" lon="1.57369">
        <ele>1240</ele>
        <time>2015-03-21T09:40:19.000Z</time>
      </trkpt>
      <trkpt lat="42.53209" lon="1.57376">
        <ele>1241</ele>
        <time>2015-03-21T09:40:27.000Z</time>
      </trkpt>
      <trkpt lat="42.53214" lon="1.57382">
        <ele>1241</ele>
        <time>2015-03-21T09:40:33.000Z</time>
      </trkpt>
      <trkpt lat="42.53217" lon="1.57387">
        <ele>1241</ele>
        <time>2015-03-21T09:40:38.000Z</time>
      </trkpt>
      <trkpt lat="42.5322" lon="1.57391">
        <ele>1241</ele>
        <time>2015-03-21T09:40:42.000Z</time>
      </trkpt>
      <trkpt lat="42.53226" lon="1.57398">
        <ele>1241</ele>
        <time>2015-03-21T09:40:50.000Z</time>
      </trkpt>
      <trkpt lat="42.53232" lon="1.57407">
        <ele>1241</ele>
        <time>2015-03-21T09:40:58.000Z</time>
      </trkpt>
      <trkpt lat="42.53235" lon="1.57417">
        <ele>1244</ele>
        <time>2015-03-21T09:41:03.000Z</time>
      </trkpt>
      <trkpt lat="42.5324" lon="1.57425">
        <ele>1243</ele>
        <time>2015-03-21T09:41:12.000Z</time>
      </trkpt>
      <trkpt lat="42.53247" lon="1.57435">
        <ele>1244</ele>
        <time>2015-03-21T09:41:20.000Z</time>
      </trkpt>
      <trkpt lat="42.53253" lon="1.57449">
        <ele>1241</ele>
        <time>2015-03-21T09:41:29.000Z</time>
      </trkpt>
      <trkpt lat="42.53257" lon="1.57455">
        <ele>1241</ele>
        <time>2015-03-21T09:41:37.000Z</time>
      </trkpt>
      <trkpt lat="42.53248" lon="1.5757">
        <ele>1252</ele>
        <time>2015-03-21T09:42:26.000Z</time>
      </trkpt>
      <trkpt lat="42.53251" lon="1.57569">
        <ele>1247</ele>
        <time>2015-03-21T09:42:27.000Z</time>
      </trkpt>
      <trkpt lat="42.53257" lon="1.57563">
        <ele>1246</ele>
        <time>2015-03-21T09:42:30.000Z</time>
      </trkpt>
      <trkpt lat="42.5326" lon="1.57561">
        <ele>1246</ele>
        <time>2015-03-21T09:42:33.000Z</time>
      </trkpt>
      <trkpt lat="42.5326" lon="1.57564">
        <ele>1246</ele>
        <time>2015-03-21T09:42:41.000Z</time>
      </trkpt>
      <trkpt lat="42.53261" lon="1.57569">
        <ele>1246</ele>
        <time>2015-03-21T09:42:49.000Z</time>
      </trkpt>
      <trkpt lat="42.53265" lon="1.57574">
        <ele>1246</ele>
        <time>2015-03-21T09:42:57.000Z</time>
      </trkpt>
      <trkpt lat="42.53272" lon="1.57576">
        <ele>1246</ele>
        <time>2015-03-21T09:43:06.000Z</time>
      </trkpt>
      <trkpt lat="42.53274" lon="1.57575">
        <ele>1246</ele>
        <time>2015-03-21T09:43:09.000Z</time>
      </trkpt>
      <trkpt lat="42.53274" lon="1.57574">
        <ele>1245</ele>
        <time>2015-03-21T09:43:10.000Z</time>
      </trkpt>
      <trkpt lat="42.53275" lon="1.57574">
        <ele>1245</ele>
        <time>2015-03-21T09:43:11.000Z</time>
      </trkpt>
      <trkpt lat="42.53276" lon="1.57573">
        <ele>1245</ele>
        <time>2015-03-21T09:43:12.000Z</time>
      </trkpt>
      <trkpt lat="42.53277" lon="1.57573">
        <ele>1245</ele>
        <time>2015-03-21T09:43:13.000Z</time>
      </trkpt>
      <trkpt lat="42.53282" lon="1.57572">
        <ele>1245</ele>
        <time>2015-03-21T09:43:18.000Z</time>
      </trkpt>
      <trkpt lat="42.53288" lon="1.5758">
        <ele>1244</ele>
        <time>2015-03-21T09:43:28.000Z</time>
      </trkpt>
      <trkpt lat="42.53282" lon="1.57602">
        <ele>1247</ele>
        <time>2015-03-21T09:43:36.000Z</time>
      </trkpt>
      <trkpt lat="42.5328" lon="1.57619">
        <ele>1247</ele>
        <time>2015-03-21T09:43:45.000Z</time>
      </trkpt>
      <trkpt lat="42.53281" lon="1.57627">
        <ele>1248</ele>
        <time>2015-03-21T09:43:53.000Z</time>
      </trkpt>
      <trkpt lat="42.53279" lon="1.57629">
        <ele>1248</ele>
        <time>2015-03-21T09:44:00.000Z</time>
      </trkpt>
      <trkpt lat="42.53281" lon="1.57634">
        <ele>1248</ele>
        <time>2015-03-21T09:44:10.000Z</time>
      </trkpt>
      <trkpt lat="42.5328" lon="1.57641">
        <ele>1248</ele>
        <time>2015-03-21T09:44:18.000Z</time>
      </trkpt>
      <trkpt lat="42.53282" lon="1.57646">
        <ele>1248</ele>
        <time>2015-03-21T09:44:28.000Z</time>
      </trkpt>
      <trkpt lat="42.53285" lon="1.57647">
        <ele>1248</ele>
        <time>2015-03-21T09:44:31.000Z</time>
      </trkpt>
      <trkpt lat="42.53289" lon="1.5765">
        <ele>1247</ele>
        <time>2015-03-21T09:44:35.000Z</time>
      </trkpt>
      <trkpt lat="42.53286" lon="1.57664">
        <ele>1248</ele>
        <time>2015-03-21T09:44:42.000Z</time>
      </trkpt>
      <trkpt lat="42.53286" lon="1.57672">
        <ele>1250</ele>
        <time>2015-03-21T09:44:46.000Z</time>
      </trkpt>
      <trkpt lat="42.53286" lon="1.57674">
        <ele>1250</ele>
        <time>2015-03-21T09:44:47.000Z</time>
      </trkpt>
      <trkpt lat="42.53286" lon="1.57675">
        <ele>1250</ele>
        <time>2015-03-21T09:44:48.000Z</time>
      </trkpt>
      <trkpt lat="42.53286" lon="1.57677">
        <ele>1250</ele>
        <time>2015-03-21T09:44:49.000Z</time>
      </trkpt>
      <trkpt lat="42.53285" lon="1.57679">
        <ele>1250</ele>
        <time>2015-03-21T09:44:50.000Z</time>
      </trkpt>
      <trkpt lat="42.53285" lon="1.57683">
        <ele>1250</ele>
        <time>2015-03-21T09:44:52.000Z</time>
      </trkpt>
      <trkpt lat="42.53283" lon="1.577">
        <ele>1250</ele>
        <time>2015-03-21T09:45:00.000Z</time>
      </trkpt>
      <trkpt lat="42.53288" lon="1.57714">
        <ele>1250</ele>
        <time>2015-03-21T09:45:09.000Z</time>
      </trkpt>
      <trkpt lat="42.53288" lon="1.5772">
        <ele>1250</ele>
        <time>2015-03-21T09:45:17.000Z</time>
      </trkpt>
      <trkpt lat="42.53291" lon="1.57735">
        <ele>1250</ele>
        <time>2015-03-21T09:45:27.000Z</time>
      </trkpt>
      <trkpt lat="42.53293" lon="1.57749">
        <ele>1250</ele>
        <time>2015-03-21T09:45:34.000Z</time>
      </trkpt>
      <trkpt lat="42.53298" lon="1.57762">
        <ele>1251</ele>
        <time>2015-03-21T09:45:41.000Z</time>
      </trkpt>
      <trkpt lat="42.53304" lon="1.57765">
        <ele>1250</ele>
        <time>2015-03-21T09:45:47.000Z</time>
      </trkpt>
      <trkpt lat="42.53301" lon="1.57765">
        <ele>1250</ele>
        <time>2015-03-21T09:45:52.000Z</time>
      </trkpt>
      <trkpt lat="42.533" lon="1.57766">
        <ele>1250</ele>
        <time>2015-03-21T09:45:53.000Z</time>
      </trkpt>
      <trkpt lat="42.53299" lon="1.57766">
        <ele>1251</ele>
        <time>2015-03-21T09:45:54.000Z</time>
      </trkpt>
      <trkpt lat="42.53299" lon="1.57768">
        <ele>1251</ele>
        <time>2015-03-21T09:45:55.000Z</time>
      </trkpt>
      <trkpt lat="42.53299" lon="1.57768">
        <ele>1251</ele>
        <time>2015-03-21T09:45:56.000Z</time>
      </trkpt>
      <trkpt lat="42.53297" lon="1.57775">
        <ele>1251</ele>
        <time>2015-03-21T09:46:03.000Z</time>
      </trkpt>
      <trkpt lat="42.53296" lon="1.5778">
        <ele>1251</ele>
        <time>2015-03-21T09:46:12.000Z</time>
      </trkpt>
      <trkpt lat="42.53302" lon="1.57806">
        <ele>1251</ele>
        <time>2015-03-21T09:46:19.000Z</time>
      </trkpt>
      <trkpt lat="42.53307" lon="1.57818">
        <ele>1250</ele>
        <time>2015-03-21T09:46:25.000Z</time>
      </trkpt>
      <trkpt lat="42.53307" lon="1.57825">
        <ele>1250</ele>
        <time>2015-03-21T09:46:28.000Z</time>
      </trkpt>
      <trkpt lat="42.5331" lon="1.57835">
        <ele>1251</ele>
        <time>2015-03-21T09:46:34.000Z</time>
      </trkpt>
      <trkpt lat="42.53316" lon="1.57845">
        <ele>1251</ele>
        <time>2015-03-21T09:46:44.000Z</time>
      </trkpt>
      <trkpt lat="42.53318" lon="1.57846">
        <ele>1251</ele>
        <time>2015-03-21T09:46:48.000Z</time>
      </trkpt>
      <trkpt lat="42.53322" lon="1.57846">
        <ele>1250</ele>
        <time>2015-03-21T09:46:51.000Z</time>
      </trkpt>
      <trkpt lat="42.53325" lon="1.57843">
        <ele>1250</ele>
        <time>2015-03-21T09:46:59.000Z</time>
      </trkpt>
      <trkpt lat="42.53326" lon="1.57839">
        <ele>1249</ele>
        <time>2015-03-21T09:47:08.000Z</time>
      </trkpt>
      <trkpt lat="42.53326" lon="1.57839">
        <ele>1249</ele>
        <time>2015-03-21T09:47:09.000Z</time>
      </trkpt>
      <trkpt lat="42.53327" lon="1.57839">
        <ele>1249</ele>
        <time>2015-03-21T09:47:10.000Z</time>
      </trkpt>
      <trkpt lat="42.53327" lon="1.57839">
        <ele>1249</ele>
        <time>2015-03-21T09:47:11.000Z</time>
      </trkpt>
      <trkpt lat="42.53328" lon="1.57838">
        <ele>1249</ele>
        <time>2015-03-21T09:47:12.000Z</time>
      </trkpt>
      <trkpt lat="42.53328" lon="1.57838">
        <ele>1249</ele>
        <time>2015-03-21T09:47:13.000Z</time>
      </trkpt>
      <trkpt lat="42.53329" lon="1.57835">
        <ele>1248</ele>
        <time>2015-03-21T09:47:16.000Z</time>
      </trkpt>
      <trkpt lat="42.53336" lon="1.57834">
        <ele>1247</ele>
        <time>2015-03-21T09:47:24.000Z</time>
      </trkpt>
      <trkpt lat="42.53342" lon="1.57834">
        <ele>1247</ele>
        <time>2015-03-21T09:47:31.000Z</time>
      </trkpt>
      <trkpt lat="42.53351" lon="1.57834">
        <ele>1247</ele>
        <time>2015-03-21T09:47:40.000Z</time>
      </trkpt>
      <trkpt lat="42.53359" lon="1.57835">
        <ele>1247</ele>
        <time>2015-03-21T09:47:47.000Z</time>
      </trkpt>
      <trkpt lat="42.53368" lon="1.57834">
        <ele>1247</ele>
        <time>2015-03-21T09:47:53.000Z</time>
      </trkpt>
      <trkpt lat="42.53374" lon="1.57832">
        <ele>1245</ele>
        <time>2015-03-21T09:48:00.000Z</time>
      </trkpt>
      <trkpt lat="42.53381" lon="1.57834">
        <ele>1247</ele>
        <time>2015-03-21T09:48:07.000Z</time>
      </trkpt>
      <trkpt lat="42.53384" lon="1.57844">
        <ele>1247</ele>
        <time>2015-03-21T09:48:14.000Z</time>
      </trkpt>
      <trkpt lat="42.53385" lon="1.57846">
        <ele>1247</ele>
        <time>2015-03-21T09:48:15.000Z</time>
      </trkpt>
      <trkpt lat="42.53387" lon="1.57853">
        <ele>1247</ele>
        <time>2015-03-21T09:48:21.000Z</time>
      </trkpt>
      <trkpt lat="42.53394" lon="1.57862">
        <ele>1247</ele>
        <time>2015-03-21T09:48:29.000Z</time>
      </trkpt>
      <trkpt lat="42.53398" lon="1.5787">
        <ele>1247</ele>
        <time>2015-03-21T09:48:36.000Z</time>
      </trkpt>
      <trkpt lat="42.53403" lon="1.57879">
        <ele>1247</ele>
        <time>2015-03-21T09:48:45.000Z</time>
      </trkpt>
      <trkpt lat="42.53408" lon="1.57887">
        <ele>1248</ele>
        <time>2015-03-21T09:48:53.000Z</time>
      </trkpt>
      <trkpt lat="42.53413" lon="1.57893">
        <ele>1248</ele>
        <time>2015-03-21T09:49:00.000Z</time>
      </trkpt>
      <trkpt lat="42.53419" lon="1.579">
        <ele>1248</ele>
        <time>2015-03-21T09:49:08.000Z</time>
      </trkpt>
      <trkpt lat="42.53425" lon="1.57908">
        <ele>1248</ele>
        <time>2015-03-21T09:49:16.000Z</time>
      </trkpt>
      <trkpt lat="42.53427" lon="1.57914">
        <ele>1248</ele>
        <time>2015-03-21T09:49:22.000Z</time>
      </trkpt>
      <trkpt lat="42.53428" lon="1.57925">
        <ele>1250</ele>
        <time>2015-03-21T09:49:31.000Z</time>
      </trkpt>
      <trkpt lat="42.53429" lon="1.5793">
        <ele>1251</ele>
        <time>2015-03-21T09:49:35.000Z</time>
      </trkpt>
      <trkpt lat="42.53429" lon="1.57933">
        <ele>1251</ele>
        <time>2015-03-21T09:49:37.000Z</time>
      </trkpt>
      <trkpt lat="42.53431" lon="1.57938">
        <ele>1251</ele>
        <time>2015-03-21T09:49:42.000Z</time>
      </trkpt>
      <trkpt lat="42.53431" lon="1.5794">
        <ele>1251</ele>
        <time>2015-03-21T09:49:43.000Z</time>
      </trkpt>
      <trkpt lat="42.5343" lon="1.57942">
        <ele>1252</ele>
        <time>2015-03-21T09:49:44.000Z</time>
      </trkpt>
      <trkpt lat="42.5343" lon="1.57944">
        <ele>1252</ele>
        <time>2015-03-21T09:49:45.000Z</time>
      </trkpt>
      <trkpt lat="42.5343" lon="1.57946">
        <ele>1252</ele>
        <time>2015-03-21T09:49:46.000Z</time>
      </trkpt>
      <trkpt lat="42.53431" lon="1.57949">
        <ele>1252</ele>
        <time>2015-03-21T09:49:49.000Z</time>
      </trkpt>
      <trkpt lat="42.53431" lon="1.5795">
        <ele>1252</ele>
        <time>2015-03-21T09:49:50.000Z</time>
      </trkpt>
      <trkpt lat="42.53431" lon="1.57957">
        <ele>1252</ele>
        <time>2015-03-21T09:49:55.000Z</time>
      </trkpt>
      <trkpt lat="42.53432" lon="1.57964">
        <ele>1253</ele>
        <time>2015-03-21T09:50:02.000Z</time>
      </trkpt>
      <trkpt lat="42.53435" lon="1.5797">
        <ele>1253</ele>
        <time>2015-03-21T09:50:10.000Z</time>
      </trkpt>
      <trkpt lat="42.53435" lon="1.5797">
        <ele>1253</ele>
        <time>2015-03-21T09:50:16.000Z</time>
      </trkpt>
      <trkpt lat="42.53435" lon="1.5797">
        <ele>1253</ele>
        <time>2015-03-21T09:50:17.000Z</time>
      </trkpt>
      <trkpt lat="42.53436" lon="1.5797">
        <ele>1253</ele>
        <time>2015-03-21T09:50:18.000Z</time>
      </trkpt>
      <trkpt lat="42.53435" lon="1.57973">
        <ele>1253</ele>
        <time>2015-03-21T09:50:19.000Z</time>
      </trkpt>
      <trkpt lat="42.53434" lon="1.57975">
        <ele>1253</ele>
        <time>2015-03-21T09:50:20.000Z</time>
      </trkpt>
      <trkpt lat="42.53433" lon="1.57976">
        <ele>1253</ele>
        <time>2015-03-21T09:50:23.000Z</time>
      </trkpt>
      <trkpt lat="42.53433" lon="1.57983">
        <ele>1253</ele>
        <time>2015-03-21T09:50:29.000Z</time>
      </trkpt>
      <trkpt lat="42.53438" lon="1.57986">
        <ele>1253</ele>
        <time>2015-03-21T09:50:32.000Z</time>
      </trkpt>
      <trkpt lat="42.53442" lon="1.57989">
        <ele>1254</ele>
        <time>2015-03-21T09:50:36.000Z</time>
      </trkpt>
      <trkpt lat="42.53447" lon="1.57993">
        <ele>1254</ele>
        <time>2015-03-21T09:50:43.000Z</time>
      </trkpt>
      <trkpt lat="42.53453" lon="1.57998">
        <ele>1254</ele>
        <time>2015-03-21T09:50:52.000Z</time>
      </trkpt>
      <trkpt lat="42.5346" lon="1.58">
        <ele>1254</ele>
        <time>2015-03-21T09:51:00.000Z</time>
      </trkpt>
      <trkpt lat="42.53462" lon="1.58005">
        <ele>1255</ele>
        <time>2015-03-21T09:51:09.000Z</time>
      </trkpt>
      <trkpt lat="42.53469" lon="1.58012">
        <ele>1256</ele>
        <time>2015-03-21T09:51:17.000Z</time>
      </trkpt>
      <trkpt lat="42.53481" lon="1.58027">
        <ele>1256</ele>
        <time>2015-03-21T09:51:26.000Z</time>
      </trkpt>
      <trkpt lat="42.53487" lon="1.58029">
        <ele>1256</ele>
        <time>2015-03-21T09:51:34.000Z</time>
      </trkpt>
      <trkpt lat="42.53487" lon="1.58028">
        <ele>1256</ele>
        <time>2015-03-21T09:51:35.000Z</time>
      </trkpt>
      <trkpt lat="42.53488" lon="1.58028">
        <ele>1256</ele>
        <time>2015-03-21T09:51:36.000Z</time>
      </trkpt>
      <trkpt lat="42.53488" lon="1.58028">
        <ele>1256</ele>
        <time>2015-03-21T09:51:37.000Z</time>
      </trkpt>
    </trkseg>
  </trk>
</gpx>